<?xml version="1.0" encoding="UTF-8" standalone="no" ?>
<gpx xmlns="http://www.topografix.com/GPX/1/1" xmlns:xsi="http://www.w3.org/2001/XMLSchema-instance" xsi:schemaLocation="http://www.topografix.com/GPX/1/1 http://www.topografix.com/GPX/1/1/gpx.xsd" version="1.1" creator="VisuGPX - https://www.visugpx.com">
  <metadata>
    <name>Burnaupt</name>
    <desc><![CDATA[Sentier des bunkers]]></desc>
  </metadata>
  <trk>
    <name><![CDATA[Burnaupt_1]]></name>
    <trkseg>
      <trkpt lat="47.71854" lon="7.16249">
        <ele>300.3</ele>
        <time>2015-08-30T07:31:28Z</time>
      </trkpt>
      <trkpt lat="47.71854" lon="7.16249">
        <ele>300.8</ele>
        <time>2015-08-30T07:31:32Z</time>
      </trkpt>
      <trkpt lat="47.71853" lon="7.1625">
        <ele>301.9</ele>
        <time>2015-08-30T07:31:36Z</time>
      </trkpt>
      <trkpt lat="47.71853" lon="7.16251">
        <ele>302</ele>
        <time>2015-08-30T07:31:38Z</time>
      </trkpt>
      <trkpt lat="47.71857" lon="7.16247">
        <ele>300.5</ele>
        <time>2015-08-30T07:31:55Z</time>
      </trkpt>
      <trkpt lat="47.71858" lon="7.1624">
        <ele>300</ele>
        <time>2015-08-30T07:32:13Z</time>
      </trkpt>
      <trkpt lat="47.71852" lon="7.16238">
        <ele>300</ele>
        <time>2015-08-30T07:32:23Z</time>
      </trkpt>
      <trkpt lat="47.71854" lon="7.16249">
        <ele>300</ele>
        <time>2015-08-30T07:32:32Z</time>
      </trkpt>
      <trkpt lat="47.71859" lon="7.1625">
        <ele>300</ele>
        <time>2015-08-30T07:32:38Z</time>
      </trkpt>
      <trkpt lat="47.71863" lon="7.16253">
        <ele>300</ele>
        <time>2015-08-30T07:32:42Z</time>
      </trkpt>
      <trkpt lat="47.71878" lon="7.16255">
        <ele>300</ele>
        <time>2015-08-30T07:32:52Z</time>
      </trkpt>
      <trkpt lat="47.71885" lon="7.1625">
        <ele>302</ele>
        <time>2015-08-30T07:33:05Z</time>
      </trkpt>
      <trkpt lat="47.71891" lon="7.16253">
        <ele>302</ele>
        <time>2015-08-30T07:33:11Z</time>
      </trkpt>
      <trkpt lat="47.71899" lon="7.16245">
        <ele>302</ele>
        <time>2015-08-30T07:33:17Z</time>
      </trkpt>
      <trkpt lat="47.71903" lon="7.1624">
        <ele>302</ele>
        <time>2015-08-30T07:33:20Z</time>
      </trkpt>
      <trkpt lat="47.71904" lon="7.16232">
        <ele>302</ele>
        <time>2015-08-30T07:33:24Z</time>
      </trkpt>
      <trkpt lat="47.71904" lon="7.16218">
        <ele>302</ele>
        <time>2015-08-30T07:33:33Z</time>
      </trkpt>
      <trkpt lat="47.71907" lon="7.16212">
        <ele>302</ele>
        <time>2015-08-30T07:33:37Z</time>
      </trkpt>
      <trkpt lat="47.71911" lon="7.16209">
        <ele>301.5</ele>
        <time>2015-08-30T07:33:40Z</time>
      </trkpt>
      <trkpt lat="47.71916" lon="7.16204">
        <ele>300.5</ele>
        <time>2015-08-30T07:33:44Z</time>
      </trkpt>
      <trkpt lat="47.7192" lon="7.162">
        <ele>300</ele>
        <time>2015-08-30T07:33:50Z</time>
      </trkpt>
      <trkpt lat="47.71931" lon="7.16196">
        <ele>299.1</ele>
        <time>2015-08-30T07:34:00Z</time>
      </trkpt>
      <trkpt lat="47.71934" lon="7.16184">
        <ele>298</ele>
        <time>2015-08-30T07:34:07Z</time>
      </trkpt>
      <trkpt lat="47.71938" lon="7.16179">
        <ele>298</ele>
        <time>2015-08-30T07:34:10Z</time>
      </trkpt>
      <trkpt lat="47.7194" lon="7.16173">
        <ele>298</ele>
        <time>2015-08-30T07:34:14Z</time>
      </trkpt>
      <trkpt lat="47.71944" lon="7.16169">
        <ele>297.1</ele>
        <time>2015-08-30T07:34:18Z</time>
      </trkpt>
      <trkpt lat="47.71948" lon="7.16165">
        <ele>296.5</ele>
        <time>2015-08-30T07:34:23Z</time>
      </trkpt>
      <trkpt lat="47.71953" lon="7.16153">
        <ele>296</ele>
        <time>2015-08-30T07:34:31Z</time>
      </trkpt>
      <trkpt lat="47.71958" lon="7.16147">
        <ele>296</ele>
        <time>2015-08-30T07:34:39Z</time>
      </trkpt>
      <trkpt lat="47.71961" lon="7.16143">
        <ele>296</ele>
        <time>2015-08-30T07:34:42Z</time>
      </trkpt>
      <trkpt lat="47.71966" lon="7.16139">
        <ele>296</ele>
        <time>2015-08-30T07:34:45Z</time>
      </trkpt>
      <trkpt lat="47.71972" lon="7.16139">
        <ele>295.3</ele>
        <time>2015-08-30T07:34:50Z</time>
      </trkpt>
      <trkpt lat="47.71982" lon="7.1614">
        <ele>295</ele>
        <time>2015-08-30T07:34:55Z</time>
      </trkpt>
      <trkpt lat="47.71987" lon="7.16142">
        <ele>296</ele>
        <time>2015-08-30T07:34:58Z</time>
      </trkpt>
      <trkpt lat="47.71992" lon="7.16142">
        <ele>296</ele>
        <time>2015-08-30T07:35:02Z</time>
      </trkpt>
      <trkpt lat="47.72" lon="7.16144">
        <ele>296</ele>
        <time>2015-08-30T07:35:12Z</time>
      </trkpt>
      <trkpt lat="47.72008" lon="7.16139">
        <ele>298.7</ele>
        <time>2015-08-30T07:35:22Z</time>
      </trkpt>
      <trkpt lat="47.72019" lon="7.16138">
        <ele>299</ele>
        <time>2015-08-30T07:35:28Z</time>
      </trkpt>
      <trkpt lat="47.72029" lon="7.16138">
        <ele>299</ele>
        <time>2015-08-30T07:35:38Z</time>
      </trkpt>
      <trkpt lat="47.72037" lon="7.16134">
        <ele>299</ele>
        <time>2015-08-30T07:35:44Z</time>
      </trkpt>
      <trkpt lat="47.72042" lon="7.16131">
        <ele>299</ele>
        <time>2015-08-30T07:35:49Z</time>
      </trkpt>
      <trkpt lat="47.72047" lon="7.16129">
        <ele>299</ele>
        <time>2015-08-30T07:35:53Z</time>
      </trkpt>
      <trkpt lat="47.72051" lon="7.16125">
        <ele>299</ele>
        <time>2015-08-30T07:35:56Z</time>
      </trkpt>
      <trkpt lat="47.72053" lon="7.16118">
        <ele>298.1</ele>
        <time>2015-08-30T07:36:00Z</time>
      </trkpt>
      <trkpt lat="47.72054" lon="7.16112">
        <ele>298.1</ele>
        <time>2015-08-30T07:36:03Z</time>
      </trkpt>
      <trkpt lat="47.72055" lon="7.16103">
        <ele>296.5</ele>
        <time>2015-08-30T07:36:06Z</time>
      </trkpt>
      <trkpt lat="47.72055" lon="7.16094">
        <ele>296.5</ele>
        <time>2015-08-30T07:36:09Z</time>
      </trkpt>
      <trkpt lat="47.72054" lon="7.1608">
        <ele>296</ele>
        <time>2015-08-30T07:36:16Z</time>
      </trkpt>
      <trkpt lat="47.72054" lon="7.16073">
        <ele>295</ele>
        <time>2015-08-30T07:36:20Z</time>
      </trkpt>
      <trkpt lat="47.72055" lon="7.16065">
        <ele>295</ele>
        <time>2015-08-30T07:36:24Z</time>
      </trkpt>
      <trkpt lat="47.72056" lon="7.16052">
        <ele>295</ele>
        <time>2015-08-30T07:36:32Z</time>
      </trkpt>
      <trkpt lat="47.72055" lon="7.16037">
        <ele>295</ele>
        <time>2015-08-30T07:36:41Z</time>
      </trkpt>
      <trkpt lat="47.72059" lon="7.16031">
        <ele>295</ele>
        <time>2015-08-30T07:36:47Z</time>
      </trkpt>
      <trkpt lat="47.72061" lon="7.1601">
        <ele>295.8</ele>
        <time>2015-08-30T07:36:57Z</time>
      </trkpt>
      <trkpt lat="47.72065" lon="7.16006">
        <ele>296</ele>
        <time>2015-08-30T07:37:02Z</time>
      </trkpt>
      <trkpt lat="47.72074" lon="7.16001">
        <ele>296</ele>
        <time>2015-08-30T07:37:08Z</time>
      </trkpt>
      <trkpt lat="47.72082" lon="7.15994">
        <ele>297</ele>
        <time>2015-08-30T07:37:15Z</time>
      </trkpt>
      <trkpt lat="47.72086" lon="7.15988">
        <ele>297</ele>
        <time>2015-08-30T07:37:19Z</time>
      </trkpt>
      <trkpt lat="47.7209" lon="7.15984">
        <ele>297</ele>
        <time>2015-08-30T07:37:22Z</time>
      </trkpt>
      <trkpt lat="47.72097" lon="7.15989">
        <ele>297</ele>
        <time>2015-08-30T07:37:27Z</time>
      </trkpt>
      <trkpt lat="47.72102" lon="7.1599">
        <ele>297</ele>
        <time>2015-08-30T07:37:31Z</time>
      </trkpt>
      <trkpt lat="47.72112" lon="7.15983">
        <ele>295.1</ele>
        <time>2015-08-30T07:37:42Z</time>
      </trkpt>
      <trkpt lat="47.72124" lon="7.15979">
        <ele>295.8</ele>
        <time>2015-08-30T07:37:50Z</time>
      </trkpt>
      <trkpt lat="47.72129" lon="7.15978">
        <ele>295.5</ele>
        <time>2015-08-30T07:37:54Z</time>
      </trkpt>
      <trkpt lat="47.72137" lon="7.15979">
        <ele>295</ele>
        <time>2015-08-30T07:38:02Z</time>
      </trkpt>
      <trkpt lat="47.72143" lon="7.15978">
        <ele>295</ele>
        <time>2015-08-30T07:38:06Z</time>
      </trkpt>
      <trkpt lat="47.72157" lon="7.15978">
        <ele>295</ele>
        <time>2015-08-30T07:38:16Z</time>
      </trkpt>
      <trkpt lat="47.72162" lon="7.1598">
        <ele>295</ele>
        <time>2015-08-30T07:38:20Z</time>
      </trkpt>
      <trkpt lat="47.72167" lon="7.1598">
        <ele>295</ele>
        <time>2015-08-30T07:38:24Z</time>
      </trkpt>
      <trkpt lat="47.72177" lon="7.15983">
        <ele>295</ele>
        <time>2015-08-30T07:38:35Z</time>
      </trkpt>
      <trkpt lat="47.72191" lon="7.15986">
        <ele>295</ele>
        <time>2015-08-30T07:38:42Z</time>
      </trkpt>
      <trkpt lat="47.72195" lon="7.1599">
        <ele>295</ele>
        <time>2015-08-30T07:38:47Z</time>
      </trkpt>
      <trkpt lat="47.72206" lon="7.15993">
        <ele>296</ele>
        <time>2015-08-30T07:38:56Z</time>
      </trkpt>
      <trkpt lat="47.72215" lon="7.15996">
        <ele>297.8</ele>
        <time>2015-08-30T07:39:02Z</time>
      </trkpt>
      <trkpt lat="47.72224" lon="7.16002">
        <ele>300</ele>
        <time>2015-08-30T07:39:12Z</time>
      </trkpt>
      <trkpt lat="47.7223" lon="7.16003">
        <ele>300</ele>
        <time>2015-08-30T07:39:16Z</time>
      </trkpt>
      <trkpt lat="47.72239" lon="7.16008">
        <ele>300</ele>
        <time>2015-08-30T07:39:29Z</time>
      </trkpt>
      <trkpt lat="47.72244" lon="7.16012">
        <ele>300</ele>
        <time>2015-08-30T07:39:33Z</time>
      </trkpt>
      <trkpt lat="47.72251" lon="7.16021">
        <ele>299.2</ele>
        <time>2015-08-30T07:39:43Z</time>
      </trkpt>
      <trkpt lat="47.72267" lon="7.16026">
        <ele>295.5</ele>
        <time>2015-08-30T07:39:56Z</time>
      </trkpt>
      <trkpt lat="47.72276" lon="7.16029">
        <ele>294.2</ele>
        <time>2015-08-30T07:40:00Z</time>
      </trkpt>
      <trkpt lat="47.72284" lon="7.16032">
        <ele>294</ele>
        <time>2015-08-30T07:40:06Z</time>
      </trkpt>
      <trkpt lat="47.72288" lon="7.16037">
        <ele>293</ele>
        <time>2015-08-30T07:40:11Z</time>
      </trkpt>
      <trkpt lat="47.72301" lon="7.16048">
        <ele>293</ele>
        <time>2015-08-30T07:40:21Z</time>
      </trkpt>
      <trkpt lat="47.72311" lon="7.16061">
        <ele>293</ele>
        <time>2015-08-30T07:40:31Z</time>
      </trkpt>
      <trkpt lat="47.72323" lon="7.16072">
        <ele>294</ele>
        <time>2015-08-30T07:40:40Z</time>
      </trkpt>
      <trkpt lat="47.72328" lon="7.16084">
        <ele>294</ele>
        <time>2015-08-30T07:40:47Z</time>
      </trkpt>
      <trkpt lat="47.72331" lon="7.16091">
        <ele>294</ele>
        <time>2015-08-30T07:40:51Z</time>
      </trkpt>
      <trkpt lat="47.72335" lon="7.16095">
        <ele>294</ele>
        <time>2015-08-30T07:40:56Z</time>
      </trkpt>
      <trkpt lat="47.72345" lon="7.16102">
        <ele>293.5</ele>
        <time>2015-08-30T07:41:10Z</time>
      </trkpt>
      <trkpt lat="47.72352" lon="7.16112">
        <ele>293</ele>
        <time>2015-08-30T07:41:16Z</time>
      </trkpt>
      <trkpt lat="47.72358" lon="7.16117">
        <ele>291.5</ele>
        <time>2015-08-30T07:41:21Z</time>
      </trkpt>
      <trkpt lat="47.72361" lon="7.16123">
        <ele>290</ele>
        <time>2015-08-30T07:41:30Z</time>
      </trkpt>
      <trkpt lat="47.72367" lon="7.16126">
        <ele>290</ele>
        <time>2015-08-30T07:41:33Z</time>
      </trkpt>
      <trkpt lat="47.72379" lon="7.16135">
        <ele>288.1</ele>
        <time>2015-08-30T07:41:44Z</time>
      </trkpt>
      <trkpt lat="47.72393" lon="7.16132">
        <ele>286.1</ele>
        <time>2015-08-30T07:41:54Z</time>
      </trkpt>
      <trkpt lat="47.72403" lon="7.16128">
        <ele>286</ele>
        <time>2015-08-30T07:42:00Z</time>
      </trkpt>
      <trkpt lat="47.72412" lon="7.16122">
        <ele>286</ele>
        <time>2015-08-30T07:42:03Z</time>
      </trkpt>
      <trkpt lat="47.72401" lon="7.16182">
        <ele>286</ele>
        <time>2015-08-30T07:42:09Z</time>
      </trkpt>
      <trkpt lat="47.72418" lon="7.16143">
        <ele>286</ele>
        <time>2015-08-30T07:42:16Z</time>
      </trkpt>
      <trkpt lat="47.72425" lon="7.16123">
        <ele>286</ele>
        <time>2015-08-30T07:42:20Z</time>
      </trkpt>
      <trkpt lat="47.72433" lon="7.16116">
        <ele>286</ele>
        <time>2015-08-30T07:42:26Z</time>
      </trkpt>
      <trkpt lat="47.7248" lon="7.16119">
        <ele>286.8</ele>
        <time>2015-08-30T07:42:51Z</time>
      </trkpt>
      <trkpt lat="47.72478" lon="7.16102">
        <ele>286.9</ele>
        <time>2015-08-30T07:42:53Z</time>
      </trkpt>
      <trkpt lat="47.72478" lon="7.16093">
        <ele>290.7</ele>
        <time>2015-08-30T07:42:55Z</time>
      </trkpt>
      <trkpt lat="47.72481" lon="7.16087">
        <ele>290.7</ele>
        <time>2015-08-30T07:42:58Z</time>
      </trkpt>
      <trkpt lat="47.72487" lon="7.16097">
        <ele>292</ele>
        <time>2015-08-30T07:43:10Z</time>
      </trkpt>
      <trkpt lat="47.72487" lon="7.1611">
        <ele>292.9</ele>
        <time>2015-08-30T07:43:16Z</time>
      </trkpt>
      <trkpt lat="47.72488" lon="7.16118">
        <ele>292.9</ele>
        <time>2015-08-30T07:43:20Z</time>
      </trkpt>
      <trkpt lat="47.72492" lon="7.16137">
        <ele>293</ele>
        <time>2015-08-30T07:43:29Z</time>
      </trkpt>
      <trkpt lat="47.72499" lon="7.16148">
        <ele>293</ele>
        <time>2015-08-30T07:43:37Z</time>
      </trkpt>
      <trkpt lat="47.72502" lon="7.16157">
        <ele>293</ele>
        <time>2015-08-30T07:43:42Z</time>
      </trkpt>
      <trkpt lat="47.72507" lon="7.16168">
        <ele>293</ele>
        <time>2015-08-30T07:43:48Z</time>
      </trkpt>
      <trkpt lat="47.72511" lon="7.16182">
        <ele>293</ele>
        <time>2015-08-30T07:43:56Z</time>
      </trkpt>
      <trkpt lat="47.72513" lon="7.16192">
        <ele>293</ele>
        <time>2015-08-30T07:44:03Z</time>
      </trkpt>
      <trkpt lat="47.72515" lon="7.16206">
        <ele>293</ele>
        <time>2015-08-30T07:44:11Z</time>
      </trkpt>
      <trkpt lat="47.72516" lon="7.16214">
        <ele>293</ele>
        <time>2015-08-30T07:44:15Z</time>
      </trkpt>
      <trkpt lat="47.72523" lon="7.16227">
        <ele>293</ele>
        <time>2015-08-30T07:44:24Z</time>
      </trkpt>
      <trkpt lat="47.72526" lon="7.16242">
        <ele>292</ele>
        <time>2015-08-30T07:44:32Z</time>
      </trkpt>
      <trkpt lat="47.72531" lon="7.16252">
        <ele>292</ele>
        <time>2015-08-30T07:44:39Z</time>
      </trkpt>
      <trkpt lat="47.72533" lon="7.16266">
        <ele>292</ele>
        <time>2015-08-30T07:44:46Z</time>
      </trkpt>
      <trkpt lat="47.72537" lon="7.16271">
        <ele>291</ele>
        <time>2015-08-30T07:44:52Z</time>
      </trkpt>
      <trkpt lat="47.72538" lon="7.16284">
        <ele>290.1</ele>
        <time>2015-08-30T07:44:59Z</time>
      </trkpt>
      <trkpt lat="47.72541" lon="7.1629">
        <ele>290</ele>
        <time>2015-08-30T07:45:03Z</time>
      </trkpt>
      <trkpt lat="47.72544" lon="7.16297">
        <ele>290</ele>
        <time>2015-08-30T07:45:07Z</time>
      </trkpt>
      <trkpt lat="47.72551" lon="7.16316">
        <ele>290</ele>
        <time>2015-08-30T07:45:17Z</time>
      </trkpt>
      <trkpt lat="47.72558" lon="7.16333">
        <ele>290</ele>
        <time>2015-08-30T07:45:26Z</time>
      </trkpt>
      <trkpt lat="47.72559" lon="7.16347">
        <ele>290</ele>
        <time>2015-08-30T07:45:41Z</time>
      </trkpt>
      <trkpt lat="47.72563" lon="7.16353">
        <ele>291.7</ele>
        <time>2015-08-30T07:45:49Z</time>
      </trkpt>
      <trkpt lat="47.72563" lon="7.1636">
        <ele>293</ele>
        <time>2015-08-30T07:45:56Z</time>
      </trkpt>
      <trkpt lat="47.72566" lon="7.16366">
        <ele>295.7</ele>
        <time>2015-08-30T07:46:03Z</time>
      </trkpt>
      <trkpt lat="47.72571" lon="7.16377">
        <ele>294.2</ele>
        <time>2015-08-30T07:46:40Z</time>
      </trkpt>
      <trkpt lat="47.72574" lon="7.16385">
        <ele>294</ele>
        <time>2015-08-30T07:46:44Z</time>
      </trkpt>
      <trkpt lat="47.72577" lon="7.16401">
        <ele>294</ele>
        <time>2015-08-30T07:46:51Z</time>
      </trkpt>
      <trkpt lat="47.72583" lon="7.16411">
        <ele>294</ele>
        <time>2015-08-30T07:46:58Z</time>
      </trkpt>
      <trkpt lat="47.72588" lon="7.16427">
        <ele>294</ele>
        <time>2015-08-30T07:47:06Z</time>
      </trkpt>
      <trkpt lat="47.72593" lon="7.16439">
        <ele>294</ele>
        <time>2015-08-30T07:47:13Z</time>
      </trkpt>
      <trkpt lat="47.72597" lon="7.16455">
        <ele>294</ele>
        <time>2015-08-30T07:47:22Z</time>
      </trkpt>
      <trkpt lat="47.72599" lon="7.16468">
        <ele>294</ele>
        <time>2015-08-30T07:47:29Z</time>
      </trkpt>
      <trkpt lat="47.72601" lon="7.16482">
        <ele>293.5</ele>
        <time>2015-08-30T07:47:36Z</time>
      </trkpt>
      <trkpt lat="47.72603" lon="7.1649">
        <ele>293</ele>
        <time>2015-08-30T07:47:41Z</time>
      </trkpt>
      <trkpt lat="47.72605" lon="7.16498">
        <ele>293</ele>
        <time>2015-08-30T07:47:44Z</time>
      </trkpt>
      <trkpt lat="47.72606" lon="7.1651">
        <ele>292</ele>
        <time>2015-08-30T07:47:49Z</time>
      </trkpt>
      <trkpt lat="47.72612" lon="7.16521">
        <ele>292</ele>
        <time>2015-08-30T07:47:59Z</time>
      </trkpt>
      <trkpt lat="47.72616" lon="7.16523">
        <ele>292</ele>
        <time>2015-08-30T07:48:03Z</time>
      </trkpt>
      <trkpt lat="47.72619" lon="7.16529">
        <ele>292</ele>
        <time>2015-08-30T07:48:07Z</time>
      </trkpt>
      <trkpt lat="47.72622" lon="7.16534">
        <ele>291.2</ele>
        <time>2015-08-30T07:48:11Z</time>
      </trkpt>
      <trkpt lat="47.72626" lon="7.16539">
        <ele>291.2</ele>
        <time>2015-08-30T07:48:15Z</time>
      </trkpt>
      <trkpt lat="47.72631" lon="7.16541">
        <ele>292</ele>
        <time>2015-08-30T07:48:22Z</time>
      </trkpt>
      <trkpt lat="47.72635" lon="7.16549">
        <ele>291.1</ele>
        <time>2015-08-30T07:48:32Z</time>
      </trkpt>
      <trkpt lat="47.72635" lon="7.16556">
        <ele>291</ele>
        <time>2015-08-30T07:48:41Z</time>
      </trkpt>
      <trkpt lat="47.72641" lon="7.16558">
        <ele>291</ele>
        <time>2015-08-30T07:48:44Z</time>
      </trkpt>
      <trkpt lat="47.72649" lon="7.16565">
        <ele>290</ele>
        <time>2015-08-30T07:48:54Z</time>
      </trkpt>
      <trkpt lat="47.72654" lon="7.16569">
        <ele>285.9</ele>
        <time>2015-08-30T07:48:59Z</time>
      </trkpt>
      <trkpt lat="47.72668" lon="7.16572">
        <ele>283.3</ele>
        <time>2015-08-30T07:49:08Z</time>
      </trkpt>
      <trkpt lat="47.72677" lon="7.16572">
        <ele>280.2</ele>
        <time>2015-08-30T07:49:12Z</time>
      </trkpt>
      <trkpt lat="47.72682" lon="7.16572">
        <ele>280</ele>
        <time>2015-08-30T07:49:14Z</time>
      </trkpt>
      <trkpt lat="47.72688" lon="7.1657">
        <ele>280</ele>
        <time>2015-08-30T07:49:17Z</time>
      </trkpt>
      <trkpt lat="47.72698" lon="7.16564">
        <ele>280</ele>
        <time>2015-08-30T07:49:21Z</time>
      </trkpt>
      <trkpt lat="47.72704" lon="7.16558">
        <ele>280</ele>
        <time>2015-08-30T07:49:24Z</time>
      </trkpt>
      <trkpt lat="47.72713" lon="7.16552">
        <ele>280</ele>
        <time>2015-08-30T07:49:31Z</time>
      </trkpt>
      <trkpt lat="47.72717" lon="7.16547">
        <ele>280</ele>
        <time>2015-08-30T07:49:35Z</time>
      </trkpt>
      <trkpt lat="47.7272" lon="7.16542">
        <ele>282</ele>
        <time>2015-08-30T07:49:39Z</time>
      </trkpt>
      <trkpt lat="47.72728" lon="7.16528">
        <ele>284.9</ele>
        <time>2015-08-30T07:49:47Z</time>
      </trkpt>
      <trkpt lat="47.72735" lon="7.16519">
        <ele>286</ele>
        <time>2015-08-30T07:49:55Z</time>
      </trkpt>
      <trkpt lat="47.72743" lon="7.1651">
        <ele>288</ele>
        <time>2015-08-30T07:50:05Z</time>
      </trkpt>
      <trkpt lat="47.72747" lon="7.16507">
        <ele>288</ele>
        <time>2015-08-30T07:50:09Z</time>
      </trkpt>
      <trkpt lat="47.72752" lon="7.16504">
        <ele>288</ele>
        <time>2015-08-30T07:50:14Z</time>
      </trkpt>
      <trkpt lat="47.72757" lon="7.16492">
        <ele>288</ele>
        <time>2015-08-30T07:50:22Z</time>
      </trkpt>
      <trkpt lat="47.7276" lon="7.16478">
        <ele>288.8</ele>
        <time>2015-08-30T07:50:26Z</time>
      </trkpt>
      <trkpt lat="47.72764" lon="7.16473">
        <ele>289</ele>
        <time>2015-08-30T07:50:29Z</time>
      </trkpt>
      <trkpt lat="47.72774" lon="7.16472">
        <ele>289</ele>
        <time>2015-08-30T07:50:38Z</time>
      </trkpt>
      <trkpt lat="47.72778" lon="7.16466">
        <ele>289</ele>
        <time>2015-08-30T07:50:42Z</time>
      </trkpt>
      <trkpt lat="47.7278" lon="7.16459">
        <ele>289.8</ele>
        <time>2015-08-30T07:50:45Z</time>
      </trkpt>
      <trkpt lat="47.72789" lon="7.16455">
        <ele>290</ele>
        <time>2015-08-30T07:50:54Z</time>
      </trkpt>
      <trkpt lat="47.72793" lon="7.16451">
        <ele>290</ele>
        <time>2015-08-30T07:50:58Z</time>
      </trkpt>
      <trkpt lat="47.72796" lon="7.16446">
        <ele>290.9</ele>
        <time>2015-08-30T07:51:02Z</time>
      </trkpt>
      <trkpt lat="47.72797" lon="7.16439">
        <ele>291</ele>
        <time>2015-08-30T07:51:07Z</time>
      </trkpt>
      <trkpt lat="47.728" lon="7.16433">
        <ele>291</ele>
        <time>2015-08-30T07:51:13Z</time>
      </trkpt>
      <trkpt lat="47.72804" lon="7.16429">
        <ele>291</ele>
        <time>2015-08-30T07:51:18Z</time>
      </trkpt>
      <trkpt lat="47.72808" lon="7.16426">
        <ele>291</ele>
        <time>2015-08-30T07:51:22Z</time>
      </trkpt>
      <trkpt lat="47.72811" lon="7.16419">
        <ele>291</ele>
        <time>2015-08-30T07:51:27Z</time>
      </trkpt>
      <trkpt lat="47.72818" lon="7.16409">
        <ele>291</ele>
        <time>2015-08-30T07:51:33Z</time>
      </trkpt>
      <trkpt lat="47.72828" lon="7.16395">
        <ele>291</ele>
        <time>2015-08-30T07:51:44Z</time>
      </trkpt>
      <trkpt lat="47.72832" lon="7.16391">
        <ele>291</ele>
        <time>2015-08-30T07:51:49Z</time>
      </trkpt>
      <trkpt lat="47.72837" lon="7.16379">
        <ele>291</ele>
        <time>2015-08-30T07:51:58Z</time>
      </trkpt>
      <trkpt lat="47.72844" lon="7.16362">
        <ele>290</ele>
        <time>2015-08-30T07:52:09Z</time>
      </trkpt>
      <trkpt lat="47.72843" lon="7.16355">
        <ele>290</ele>
        <time>2015-08-30T07:52:12Z</time>
      </trkpt>
      <trkpt lat="47.72845" lon="7.16348">
        <ele>290</ele>
        <time>2015-08-30T07:52:16Z</time>
      </trkpt>
      <trkpt lat="47.72846" lon="7.16341">
        <ele>289.1</ele>
        <time>2015-08-30T07:52:20Z</time>
      </trkpt>
      <trkpt lat="47.72848" lon="7.16327">
        <ele>289</ele>
        <time>2015-08-30T07:52:26Z</time>
      </trkpt>
      <trkpt lat="47.72848" lon="7.16314">
        <ele>289</ele>
        <time>2015-08-30T07:52:31Z</time>
      </trkpt>
      <trkpt lat="47.72853" lon="7.16306">
        <ele>289</ele>
        <time>2015-08-30T07:52:37Z</time>
      </trkpt>
      <trkpt lat="47.72857" lon="7.16301">
        <ele>289</ele>
        <time>2015-08-30T07:52:43Z</time>
      </trkpt>
      <trkpt lat="47.72861" lon="7.16296">
        <ele>289.9</ele>
        <time>2015-08-30T07:52:48Z</time>
      </trkpt>
      <trkpt lat="47.72865" lon="7.1629">
        <ele>289.1</ele>
        <time>2015-08-30T07:52:52Z</time>
      </trkpt>
      <trkpt lat="47.72868" lon="7.16283">
        <ele>289.1</ele>
        <time>2015-08-30T07:52:56Z</time>
      </trkpt>
      <trkpt lat="47.72869" lon="7.16276">
        <ele>289</ele>
        <time>2015-08-30T07:53:03Z</time>
      </trkpt>
      <trkpt lat="47.72871" lon="7.16268">
        <ele>289.9</ele>
        <time>2015-08-30T07:53:08Z</time>
      </trkpt>
      <trkpt lat="47.72872" lon="7.16254">
        <ele>290</ele>
        <time>2015-08-30T07:53:16Z</time>
      </trkpt>
      <trkpt lat="47.72872" lon="7.16246">
        <ele>290</ele>
        <time>2015-08-30T07:53:20Z</time>
      </trkpt>
      <trkpt lat="47.72876" lon="7.16237">
        <ele>290</ele>
        <time>2015-08-30T07:53:26Z</time>
      </trkpt>
      <trkpt lat="47.72879" lon="7.16229">
        <ele>290</ele>
        <time>2015-08-30T07:53:30Z</time>
      </trkpt>
      <trkpt lat="47.72883" lon="7.16216">
        <ele>290</ele>
        <time>2015-08-30T07:53:36Z</time>
      </trkpt>
      <trkpt lat="47.72885" lon="7.16208">
        <ele>290.9</ele>
        <time>2015-08-30T07:53:41Z</time>
      </trkpt>
      <trkpt lat="47.72886" lon="7.162">
        <ele>291.5</ele>
        <time>2015-08-30T07:53:45Z</time>
      </trkpt>
      <trkpt lat="47.72889" lon="7.16192">
        <ele>292</ele>
        <time>2015-08-30T07:53:50Z</time>
      </trkpt>
      <trkpt lat="47.72894" lon="7.16181">
        <ele>292</ele>
        <time>2015-08-30T07:53:57Z</time>
      </trkpt>
      <trkpt lat="47.72897" lon="7.16177">
        <ele>292</ele>
        <time>2015-08-30T07:54:01Z</time>
      </trkpt>
      <trkpt lat="47.72901" lon="7.16163">
        <ele>292</ele>
        <time>2015-08-30T07:54:10Z</time>
      </trkpt>
      <trkpt lat="47.72904" lon="7.16157">
        <ele>292</ele>
        <time>2015-08-30T07:54:15Z</time>
      </trkpt>
      <trkpt lat="47.72907" lon="7.16149">
        <ele>292.5</ele>
        <time>2015-08-30T07:54:20Z</time>
      </trkpt>
      <trkpt lat="47.72913" lon="7.16137">
        <ele>292</ele>
        <time>2015-08-30T07:54:28Z</time>
      </trkpt>
      <trkpt lat="47.72916" lon="7.16124">
        <ele>292</ele>
        <time>2015-08-30T07:54:33Z</time>
      </trkpt>
      <trkpt lat="47.72919" lon="7.16116">
        <ele>292</ele>
        <time>2015-08-30T07:54:36Z</time>
      </trkpt>
      <trkpt lat="47.72923" lon="7.16112">
        <ele>291.5</ele>
        <time>2015-08-30T07:54:40Z</time>
      </trkpt>
      <trkpt lat="47.72927" lon="7.16111">
        <ele>291</ele>
        <time>2015-08-30T07:54:44Z</time>
      </trkpt>
      <trkpt lat="47.72937" lon="7.1611">
        <ele>291</ele>
        <time>2015-08-30T07:54:52Z</time>
      </trkpt>
      <trkpt lat="47.72947" lon="7.16115">
        <ele>291</ele>
        <time>2015-08-30T07:55:00Z</time>
      </trkpt>
      <trkpt lat="47.72956" lon="7.16119">
        <ele>291</ele>
        <time>2015-08-30T07:55:13Z</time>
      </trkpt>
      <trkpt lat="47.72961" lon="7.16123">
        <ele>291</ele>
        <time>2015-08-30T07:55:18Z</time>
      </trkpt>
      <trkpt lat="47.72968" lon="7.16128">
        <ele>291</ele>
        <time>2015-08-30T07:55:23Z</time>
      </trkpt>
      <trkpt lat="47.72973" lon="7.16133">
        <ele>291</ele>
        <time>2015-08-30T07:55:26Z</time>
      </trkpt>
      <trkpt lat="47.72976" lon="7.16139">
        <ele>291</ele>
        <time>2015-08-30T07:55:31Z</time>
      </trkpt>
      <trkpt lat="47.72981" lon="7.16141">
        <ele>291</ele>
        <time>2015-08-30T07:55:39Z</time>
      </trkpt>
      <trkpt lat="47.72988" lon="7.16151">
        <ele>291</ele>
        <time>2015-08-30T07:55:47Z</time>
      </trkpt>
      <trkpt lat="47.72995" lon="7.16156">
        <ele>291</ele>
        <time>2015-08-30T07:55:54Z</time>
      </trkpt>
      <trkpt lat="47.72999" lon="7.16163">
        <ele>291</ele>
        <time>2015-08-30T07:55:58Z</time>
      </trkpt>
      <trkpt lat="47.73003" lon="7.16168">
        <ele>291</ele>
        <time>2015-08-30T07:56:01Z</time>
      </trkpt>
      <trkpt lat="47.73008" lon="7.16172">
        <ele>291</ele>
        <time>2015-08-30T07:56:04Z</time>
      </trkpt>
      <trkpt lat="47.73017" lon="7.1618">
        <ele>291.8</ele>
        <time>2015-08-30T07:56:10Z</time>
      </trkpt>
      <trkpt lat="47.73024" lon="7.16189">
        <ele>292</ele>
        <time>2015-08-30T07:56:14Z</time>
      </trkpt>
      <trkpt lat="47.7303" lon="7.162">
        <ele>292</ele>
        <time>2015-08-30T07:56:21Z</time>
      </trkpt>
      <trkpt lat="47.73034" lon="7.16204">
        <ele>293</ele>
        <time>2015-08-30T07:56:24Z</time>
      </trkpt>
      <trkpt lat="47.73037" lon="7.16209">
        <ele>293.5</ele>
        <time>2015-08-30T07:56:29Z</time>
      </trkpt>
      <trkpt lat="47.73043" lon="7.1622">
        <ele>296.7</ele>
        <time>2015-08-30T07:56:37Z</time>
      </trkpt>
      <trkpt lat="47.73048" lon="7.16232">
        <ele>299.9</ele>
        <time>2015-08-30T07:56:43Z</time>
      </trkpt>
      <trkpt lat="47.73054" lon="7.16237">
        <ele>301.9</ele>
        <time>2015-08-30T07:56:47Z</time>
      </trkpt>
      <trkpt lat="47.73056" lon="7.16243">
        <ele>301.9</ele>
        <time>2015-08-30T07:56:50Z</time>
      </trkpt>
      <trkpt lat="47.73064" lon="7.16252">
        <ele>303.7</ele>
        <time>2015-08-30T07:56:57Z</time>
      </trkpt>
      <trkpt lat="47.73069" lon="7.16253">
        <ele>304.4</ele>
        <time>2015-08-30T07:57:02Z</time>
      </trkpt>
      <trkpt lat="47.73075" lon="7.16254">
        <ele>305.9</ele>
        <time>2015-08-30T07:57:08Z</time>
      </trkpt>
      <trkpt lat="47.73085" lon="7.16257">
        <ele>307</ele>
        <time>2015-08-30T07:57:17Z</time>
      </trkpt>
      <trkpt lat="47.73099" lon="7.16261">
        <ele>307</ele>
        <time>2015-08-30T07:57:27Z</time>
      </trkpt>
      <trkpt lat="47.73108" lon="7.16267">
        <ele>307</ele>
        <time>2015-08-30T07:57:34Z</time>
      </trkpt>
      <trkpt lat="47.73118" lon="7.16266">
        <ele>307</ele>
        <time>2015-08-30T07:57:42Z</time>
      </trkpt>
      <trkpt lat="47.73129" lon="7.16279">
        <ele>304.3</ele>
        <time>2015-08-30T07:57:58Z</time>
      </trkpt>
      <trkpt lat="47.73134" lon="7.16282">
        <ele>304</ele>
        <time>2015-08-30T07:58:02Z</time>
      </trkpt>
      <trkpt lat="47.73146" lon="7.16291">
        <ele>302.3</ele>
        <time>2015-08-30T07:58:12Z</time>
      </trkpt>
      <trkpt lat="47.73155" lon="7.16295">
        <ele>299.5</ele>
        <time>2015-08-30T07:58:19Z</time>
      </trkpt>
      <trkpt lat="47.73168" lon="7.16296">
        <ele>299</ele>
        <time>2015-08-30T07:58:26Z</time>
      </trkpt>
      <trkpt lat="47.73177" lon="7.16303">
        <ele>298</ele>
        <time>2015-08-30T07:58:32Z</time>
      </trkpt>
      <trkpt lat="47.73183" lon="7.16306">
        <ele>298</ele>
        <time>2015-08-30T07:58:39Z</time>
      </trkpt>
      <trkpt lat="47.73187" lon="7.16309">
        <ele>298</ele>
        <time>2015-08-30T07:58:47Z</time>
      </trkpt>
      <trkpt lat="47.73192" lon="7.16312">
        <ele>297</ele>
        <time>2015-08-30T07:58:54Z</time>
      </trkpt>
      <trkpt lat="47.73197" lon="7.16315">
        <ele>295.6</ele>
        <time>2015-08-30T07:58:59Z</time>
      </trkpt>
      <trkpt lat="47.73209" lon="7.16313">
        <ele>292.6</ele>
        <time>2015-08-30T07:59:08Z</time>
      </trkpt>
      <trkpt lat="47.73224" lon="7.16318">
        <ele>291.1</ele>
        <time>2015-08-30T07:59:17Z</time>
      </trkpt>
      <trkpt lat="47.73231" lon="7.16327">
        <ele>290</ele>
        <time>2015-08-30T07:59:26Z</time>
      </trkpt>
      <trkpt lat="47.73239" lon="7.16332">
        <ele>290</ele>
        <time>2015-08-30T07:59:33Z</time>
      </trkpt>
      <trkpt lat="47.73245" lon="7.16335">
        <ele>289</ele>
        <time>2015-08-30T07:59:38Z</time>
      </trkpt>
      <trkpt lat="47.73254" lon="7.16336">
        <ele>289</ele>
        <time>2015-08-30T07:59:45Z</time>
      </trkpt>
      <trkpt lat="47.73258" lon="7.1634">
        <ele>288.1</ele>
        <time>2015-08-30T07:59:52Z</time>
      </trkpt>
      <trkpt lat="47.73264" lon="7.16341">
        <ele>288</ele>
        <time>2015-08-30T08:00:01Z</time>
      </trkpt>
      <trkpt lat="47.73276" lon="7.16341">
        <ele>287.1</ele>
        <time>2015-08-30T08:00:06Z</time>
      </trkpt>
      <trkpt lat="47.73281" lon="7.16344">
        <ele>287</ele>
        <time>2015-08-30T08:00:09Z</time>
      </trkpt>
      <trkpt lat="47.73289" lon="7.16349">
        <ele>286</ele>
        <time>2015-08-30T08:00:15Z</time>
      </trkpt>
      <trkpt lat="47.73294" lon="7.16355">
        <ele>285.1</ele>
        <time>2015-08-30T08:00:24Z</time>
      </trkpt>
      <trkpt lat="47.73308" lon="7.16357">
        <ele>285</ele>
        <time>2015-08-30T08:00:30Z</time>
      </trkpt>
      <trkpt lat="47.73319" lon="7.16361">
        <ele>285</ele>
        <time>2015-08-30T08:00:36Z</time>
      </trkpt>
      <trkpt lat="47.73326" lon="7.16366">
        <ele>285</ele>
        <time>2015-08-30T08:00:41Z</time>
      </trkpt>
      <trkpt lat="47.73329" lon="7.1637">
        <ele>285</ele>
        <time>2015-08-30T08:00:45Z</time>
      </trkpt>
      <trkpt lat="47.73333" lon="7.16378">
        <ele>285</ele>
        <time>2015-08-30T08:00:51Z</time>
      </trkpt>
      <trkpt lat="47.73335" lon="7.16384">
        <ele>285</ele>
        <time>2015-08-30T08:00:56Z</time>
      </trkpt>
      <trkpt lat="47.73335" lon="7.16392">
        <ele>285</ele>
        <time>2015-08-30T08:01:01Z</time>
      </trkpt>
      <trkpt lat="47.73331" lon="7.16396">
        <ele>286.5</ele>
        <time>2015-08-30T08:01:05Z</time>
      </trkpt>
      <trkpt lat="47.73328" lon="7.16403">
        <ele>286.5</ele>
        <time>2015-08-30T08:01:09Z</time>
      </trkpt>
      <trkpt lat="47.73325" lon="7.16415">
        <ele>287.5</ele>
        <time>2015-08-30T08:01:17Z</time>
      </trkpt>
      <trkpt lat="47.73324" lon="7.16424">
        <ele>292.5</ele>
        <time>2015-08-30T08:01:22Z</time>
      </trkpt>
      <trkpt lat="47.73326" lon="7.1643">
        <ele>292.5</ele>
        <time>2015-08-30T08:01:26Z</time>
      </trkpt>
      <trkpt lat="47.73326" lon="7.16437">
        <ele>293</ele>
        <time>2015-08-30T08:01:30Z</time>
      </trkpt>
      <trkpt lat="47.73322" lon="7.1645">
        <ele>293</ele>
        <time>2015-08-30T08:01:36Z</time>
      </trkpt>
      <trkpt lat="47.73318" lon="7.16456">
        <ele>293.9</ele>
        <time>2015-08-30T08:01:40Z</time>
      </trkpt>
      <trkpt lat="47.73318" lon="7.16463">
        <ele>293.9</ele>
        <time>2015-08-30T08:01:43Z</time>
      </trkpt>
      <trkpt lat="47.73318" lon="7.16471">
        <ele>295</ele>
        <time>2015-08-30T08:01:48Z</time>
      </trkpt>
      <trkpt lat="47.73327" lon="7.16489">
        <ele>295</ele>
        <time>2015-08-30T08:01:57Z</time>
      </trkpt>
      <trkpt lat="47.7333" lon="7.16495">
        <ele>296</ele>
        <time>2015-08-30T08:02:01Z</time>
      </trkpt>
      <trkpt lat="47.73335" lon="7.16497">
        <ele>297</ele>
        <time>2015-08-30T08:02:16Z</time>
      </trkpt>
      <trkpt lat="47.73345" lon="7.16494">
        <ele>298</ele>
        <time>2015-08-30T08:02:22Z</time>
      </trkpt>
      <trkpt lat="47.73349" lon="7.16496">
        <ele>298</ele>
        <time>2015-08-30T08:02:26Z</time>
      </trkpt>
      <trkpt lat="47.73357" lon="7.16502">
        <ele>297.2</ele>
        <time>2015-08-30T08:02:36Z</time>
      </trkpt>
      <trkpt lat="47.73363" lon="7.16502">
        <ele>296.5</ele>
        <time>2015-08-30T08:02:41Z</time>
      </trkpt>
      <trkpt lat="47.73366" lon="7.16508">
        <ele>296.5</ele>
        <time>2015-08-30T08:02:45Z</time>
      </trkpt>
      <trkpt lat="47.7337" lon="7.16512">
        <ele>295.3</ele>
        <time>2015-08-30T08:02:49Z</time>
      </trkpt>
      <trkpt lat="47.73377" lon="7.1651">
        <ele>292.3</ele>
        <time>2015-08-30T08:02:54Z</time>
      </trkpt>
      <trkpt lat="47.73381" lon="7.16504">
        <ele>292.3</ele>
        <time>2015-08-30T08:02:57Z</time>
      </trkpt>
      <trkpt lat="47.73382" lon="7.16497">
        <ele>291.5</ele>
        <time>2015-08-30T08:03:01Z</time>
      </trkpt>
      <trkpt lat="47.73379" lon="7.16491">
        <ele>291</ele>
        <time>2015-08-30T08:03:07Z</time>
      </trkpt>
      <trkpt lat="47.73375" lon="7.16487">
        <ele>291</ele>
        <time>2015-08-30T08:03:11Z</time>
      </trkpt>
      <trkpt lat="47.73372" lon="7.16481">
        <ele>290.1</ele>
        <time>2015-08-30T08:03:15Z</time>
      </trkpt>
      <trkpt lat="47.73371" lon="7.16473">
        <ele>290</ele>
        <time>2015-08-30T08:03:19Z</time>
      </trkpt>
      <trkpt lat="47.7337" lon="7.16459">
        <ele>289.1</ele>
        <time>2015-08-30T08:03:26Z</time>
      </trkpt>
      <trkpt lat="47.73374" lon="7.16452">
        <ele>287.6</ele>
        <time>2015-08-30T08:03:29Z</time>
      </trkpt>
      <trkpt lat="47.73381" lon="7.16446">
        <ele>286.1</ele>
        <time>2015-08-30T08:03:36Z</time>
      </trkpt>
      <trkpt lat="47.7339" lon="7.1643">
        <ele>285.5</ele>
        <time>2015-08-30T08:03:45Z</time>
      </trkpt>
      <trkpt lat="47.7339" lon="7.16439">
        <ele>283.6</ele>
        <time>2015-08-30T08:03:51Z</time>
      </trkpt>
      <trkpt lat="47.73389" lon="7.16446">
        <ele>283</ele>
        <time>2015-08-30T08:03:54Z</time>
      </trkpt>
      <trkpt lat="47.73389" lon="7.16453">
        <ele>283</ele>
        <time>2015-08-30T08:03:57Z</time>
      </trkpt>
      <trkpt lat="47.7339" lon="7.16467">
        <ele>282</ele>
        <time>2015-08-30T08:04:05Z</time>
      </trkpt>
      <trkpt lat="47.73396" lon="7.16469">
        <ele>282</ele>
        <time>2015-08-30T08:04:10Z</time>
      </trkpt>
      <trkpt lat="47.734" lon="7.16467">
        <ele>282</ele>
        <time>2015-08-30T08:04:13Z</time>
      </trkpt>
      <trkpt lat="47.73404" lon="7.16463">
        <ele>282</ele>
        <time>2015-08-30T08:04:16Z</time>
      </trkpt>
      <trkpt lat="47.73407" lon="7.16456">
        <ele>282</ele>
        <time>2015-08-30T08:04:20Z</time>
      </trkpt>
      <trkpt lat="47.7341" lon="7.16438">
        <ele>282.9</ele>
        <time>2015-08-30T08:04:30Z</time>
      </trkpt>
      <trkpt lat="47.73417" lon="7.16428">
        <ele>283</ele>
        <time>2015-08-30T08:04:40Z</time>
      </trkpt>
      <trkpt lat="47.73422" lon="7.16433">
        <ele>283</ele>
        <time>2015-08-30T08:04:45Z</time>
      </trkpt>
      <trkpt lat="47.73424" lon="7.16441">
        <ele>283</ele>
        <time>2015-08-30T08:04:48Z</time>
      </trkpt>
      <trkpt lat="47.73436" lon="7.16451">
        <ele>283</ele>
        <time>2015-08-30T08:04:56Z</time>
      </trkpt>
      <trkpt lat="47.73439" lon="7.16458">
        <ele>283</ele>
        <time>2015-08-30T08:05:00Z</time>
      </trkpt>
      <trkpt lat="47.73436" lon="7.16465">
        <ele>283</ele>
        <time>2015-08-30T08:05:05Z</time>
      </trkpt>
      <trkpt lat="47.73433" lon="7.16473">
        <ele>283.9</ele>
        <time>2015-08-30T08:05:09Z</time>
      </trkpt>
      <trkpt lat="47.7343" lon="7.1648">
        <ele>284</ele>
        <time>2015-08-30T08:05:14Z</time>
      </trkpt>
      <trkpt lat="47.73426" lon="7.16482">
        <ele>284</ele>
        <time>2015-08-30T08:05:19Z</time>
      </trkpt>
      <trkpt lat="47.73423" lon="7.16489">
        <ele>285</ele>
        <time>2015-08-30T08:05:24Z</time>
      </trkpt>
      <trkpt lat="47.73425" lon="7.16503">
        <ele>285</ele>
        <time>2015-08-30T08:05:30Z</time>
      </trkpt>
      <trkpt lat="47.73425" lon="7.16518">
        <ele>285</ele>
        <time>2015-08-30T08:05:36Z</time>
      </trkpt>
      <trkpt lat="47.73422" lon="7.16525">
        <ele>286</ele>
        <time>2015-08-30T08:05:39Z</time>
      </trkpt>
      <trkpt lat="47.73417" lon="7.16529">
        <ele>286.9</ele>
        <time>2015-08-30T08:05:43Z</time>
      </trkpt>
      <trkpt lat="47.73419" lon="7.16536">
        <ele>287</ele>
        <time>2015-08-30T08:05:51Z</time>
      </trkpt>
      <trkpt lat="47.73417" lon="7.16542">
        <ele>287</ele>
        <time>2015-08-30T08:05:55Z</time>
      </trkpt>
      <trkpt lat="47.7341" lon="7.16554">
        <ele>287</ele>
        <time>2015-08-30T08:06:00Z</time>
      </trkpt>
      <trkpt lat="47.73407" lon="7.1656">
        <ele>287</ele>
        <time>2015-08-30T08:06:03Z</time>
      </trkpt>
      <trkpt lat="47.73404" lon="7.16567">
        <ele>287</ele>
        <time>2015-08-30T08:06:06Z</time>
      </trkpt>
      <trkpt lat="47.73402" lon="7.16573">
        <ele>287</ele>
        <time>2015-08-30T08:06:11Z</time>
      </trkpt>
      <trkpt lat="47.73395" lon="7.1659">
        <ele>288</ele>
        <time>2015-08-30T08:06:20Z</time>
      </trkpt>
      <trkpt lat="47.73396" lon="7.16611">
        <ele>288</ele>
        <time>2015-08-30T08:06:31Z</time>
      </trkpt>
      <trkpt lat="47.73398" lon="7.16619">
        <ele>288</ele>
        <time>2015-08-30T08:06:35Z</time>
      </trkpt>
      <trkpt lat="47.73398" lon="7.16627">
        <ele>288</ele>
        <time>2015-08-30T08:06:39Z</time>
      </trkpt>
      <trkpt lat="47.73397" lon="7.1664">
        <ele>288</ele>
        <time>2015-08-30T08:06:44Z</time>
      </trkpt>
      <trkpt lat="47.73395" lon="7.16648">
        <ele>288</ele>
        <time>2015-08-30T08:06:48Z</time>
      </trkpt>
      <trkpt lat="47.73395" lon="7.16655">
        <ele>288</ele>
        <time>2015-08-30T08:06:52Z</time>
      </trkpt>
      <trkpt lat="47.73394" lon="7.16662">
        <ele>288</ele>
        <time>2015-08-30T08:07:00Z</time>
      </trkpt>
      <trkpt lat="47.7339" lon="7.16675">
        <ele>288</ele>
        <time>2015-08-30T08:07:08Z</time>
      </trkpt>
      <trkpt lat="47.73388" lon="7.16689">
        <ele>288</ele>
        <time>2015-08-30T08:07:13Z</time>
      </trkpt>
      <trkpt lat="47.73386" lon="7.16698">
        <ele>288</ele>
        <time>2015-08-30T08:07:16Z</time>
      </trkpt>
      <trkpt lat="47.73386" lon="7.16706">
        <ele>288</ele>
        <time>2015-08-30T08:07:19Z</time>
      </trkpt>
      <trkpt lat="47.73391" lon="7.1672">
        <ele>288</ele>
        <time>2015-08-30T08:07:29Z</time>
      </trkpt>
      <trkpt lat="47.73393" lon="7.16726">
        <ele>288</ele>
        <time>2015-08-30T08:07:32Z</time>
      </trkpt>
      <trkpt lat="47.73395" lon="7.16733">
        <ele>288</ele>
        <time>2015-08-30T08:07:36Z</time>
      </trkpt>
      <trkpt lat="47.73396" lon="7.16755">
        <ele>288</ele>
        <time>2015-08-30T08:07:46Z</time>
      </trkpt>
      <trkpt lat="47.73394" lon="7.16762">
        <ele>288.9</ele>
        <time>2015-08-30T08:07:49Z</time>
      </trkpt>
      <trkpt lat="47.73391" lon="7.16769">
        <ele>289.9</ele>
        <time>2015-08-30T08:07:54Z</time>
      </trkpt>
      <trkpt lat="47.7339" lon="7.16777">
        <ele>289.9</ele>
        <time>2015-08-30T08:07:58Z</time>
      </trkpt>
      <trkpt lat="47.73388" lon="7.1679">
        <ele>290.9</ele>
        <time>2015-08-30T08:08:04Z</time>
      </trkpt>
      <trkpt lat="47.73388" lon="7.16797">
        <ele>291</ele>
        <time>2015-08-30T08:08:09Z</time>
      </trkpt>
      <trkpt lat="47.73391" lon="7.16811">
        <ele>291</ele>
        <time>2015-08-30T08:08:16Z</time>
      </trkpt>
      <trkpt lat="47.7339" lon="7.16831">
        <ele>291</ele>
        <time>2015-08-30T08:08:27Z</time>
      </trkpt>
      <trkpt lat="47.73389" lon="7.16848">
        <ele>289.3</ele>
        <time>2015-08-30T08:08:35Z</time>
      </trkpt>
      <trkpt lat="47.7339" lon="7.16855">
        <ele>289</ele>
        <time>2015-08-30T08:08:39Z</time>
      </trkpt>
      <trkpt lat="47.73388" lon="7.16868">
        <ele>289</ele>
        <time>2015-08-30T08:08:46Z</time>
      </trkpt>
      <trkpt lat="47.73389" lon="7.16877">
        <ele>288</ele>
        <time>2015-08-30T08:08:50Z</time>
      </trkpt>
      <trkpt lat="47.73392" lon="7.16891">
        <ele>288</ele>
        <time>2015-08-30T08:08:57Z</time>
      </trkpt>
      <trkpt lat="47.73393" lon="7.16906">
        <ele>287</ele>
        <time>2015-08-30T08:09:03Z</time>
      </trkpt>
      <trkpt lat="47.73395" lon="7.16914">
        <ele>287</ele>
        <time>2015-08-30T08:09:07Z</time>
      </trkpt>
      <trkpt lat="47.73394" lon="7.16923">
        <ele>286.5</ele>
        <time>2015-08-30T08:09:13Z</time>
      </trkpt>
      <trkpt lat="47.73389" lon="7.16935">
        <ele>285.5</ele>
        <time>2015-08-30T08:09:18Z</time>
      </trkpt>
      <trkpt lat="47.73388" lon="7.16944">
        <ele>284.1</ele>
        <time>2015-08-30T08:09:23Z</time>
      </trkpt>
      <trkpt lat="47.73384" lon="7.16947">
        <ele>284.1</ele>
        <time>2015-08-30T08:09:27Z</time>
      </trkpt>
      <trkpt lat="47.73381" lon="7.16961">
        <ele>284</ele>
        <time>2015-08-30T08:09:33Z</time>
      </trkpt>
      <trkpt lat="47.7338" lon="7.16976">
        <ele>283</ele>
        <time>2015-08-30T08:09:41Z</time>
      </trkpt>
      <trkpt lat="47.73378" lon="7.16983">
        <ele>282.5</ele>
        <time>2015-08-30T08:09:46Z</time>
      </trkpt>
      <trkpt lat="47.73375" lon="7.16994">
        <ele>280.3</ele>
        <time>2015-08-30T08:09:52Z</time>
      </trkpt>
      <trkpt lat="47.73371" lon="7.17">
        <ele>280</ele>
        <time>2015-08-30T08:09:57Z</time>
      </trkpt>
      <trkpt lat="47.73361" lon="7.17003">
        <ele>280</ele>
        <time>2015-08-30T08:10:06Z</time>
      </trkpt>
      <trkpt lat="47.73358" lon="7.16997">
        <ele>280</ele>
        <time>2015-08-30T08:10:11Z</time>
      </trkpt>
      <trkpt lat="47.73356" lon="7.16984">
        <ele>280</ele>
        <time>2015-08-30T08:10:20Z</time>
      </trkpt>
      <trkpt lat="47.73353" lon="7.16971">
        <ele>280.5</ele>
        <time>2015-08-30T08:10:27Z</time>
      </trkpt>
      <trkpt lat="47.73355" lon="7.16963">
        <ele>281</ele>
        <time>2015-08-30T08:10:31Z</time>
      </trkpt>
      <trkpt lat="47.73358" lon="7.16949">
        <ele>281</ele>
        <time>2015-08-30T08:10:38Z</time>
      </trkpt>
      <trkpt lat="47.73355" lon="7.16943">
        <ele>282.9</ele>
        <time>2015-08-30T08:10:43Z</time>
      </trkpt>
      <trkpt lat="47.73353" lon="7.16935">
        <ele>282.9</ele>
        <time>2015-08-30T08:10:46Z</time>
      </trkpt>
      <trkpt lat="47.73351" lon="7.16921">
        <ele>283.7</ele>
        <time>2015-08-30T08:10:52Z</time>
      </trkpt>
      <trkpt lat="47.73347" lon="7.16917">
        <ele>284.7</ele>
        <time>2015-08-30T08:10:56Z</time>
      </trkpt>
      <trkpt lat="47.73341" lon="7.16916">
        <ele>285</ele>
        <time>2015-08-30T08:11:00Z</time>
      </trkpt>
      <trkpt lat="47.73336" lon="7.16915">
        <ele>285</ele>
        <time>2015-08-30T08:11:04Z</time>
      </trkpt>
      <trkpt lat="47.73326" lon="7.16912">
        <ele>285.7</ele>
        <time>2015-08-30T08:11:13Z</time>
      </trkpt>
      <trkpt lat="47.73321" lon="7.16911">
        <ele>287</ele>
        <time>2015-08-30T08:11:16Z</time>
      </trkpt>
      <trkpt lat="47.73315" lon="7.1691">
        <ele>287</ele>
        <time>2015-08-30T08:11:20Z</time>
      </trkpt>
      <trkpt lat="47.73305" lon="7.1691">
        <ele>288</ele>
        <time>2015-08-30T08:11:27Z</time>
      </trkpt>
      <trkpt lat="47.73299" lon="7.16907">
        <ele>288</ele>
        <time>2015-08-30T08:11:33Z</time>
      </trkpt>
      <trkpt lat="47.73289" lon="7.16903">
        <ele>289</ele>
        <time>2015-08-30T08:11:45Z</time>
      </trkpt>
      <trkpt lat="47.73275" lon="7.16902">
        <ele>289</ele>
        <time>2015-08-30T08:11:57Z</time>
      </trkpt>
      <trkpt lat="47.73268" lon="7.16901">
        <ele>288</ele>
        <time>2015-08-30T08:12:06Z</time>
      </trkpt>
      <trkpt lat="47.73263" lon="7.169">
        <ele>287.2</ele>
        <time>2015-08-30T08:12:14Z</time>
      </trkpt>
      <trkpt lat="47.73258" lon="7.16896">
        <ele>287</ele>
        <time>2015-08-30T08:12:18Z</time>
      </trkpt>
      <trkpt lat="47.73253" lon="7.16895">
        <ele>287</ele>
        <time>2015-08-30T08:12:21Z</time>
      </trkpt>
      <trkpt lat="47.73244" lon="7.16892">
        <ele>286.1</ele>
        <time>2015-08-30T08:12:27Z</time>
      </trkpt>
      <trkpt lat="47.73235" lon="7.16896">
        <ele>286</ele>
        <time>2015-08-30T08:12:33Z</time>
      </trkpt>
      <trkpt lat="47.7323" lon="7.16896">
        <ele>286</ele>
        <time>2015-08-30T08:12:36Z</time>
      </trkpt>
      <trkpt lat="47.73225" lon="7.16893">
        <ele>285</ele>
        <time>2015-08-30T08:12:42Z</time>
      </trkpt>
      <trkpt lat="47.73217" lon="7.16894">
        <ele>284</ele>
        <time>2015-08-30T08:12:55Z</time>
      </trkpt>
      <trkpt lat="47.73216" lon="7.16901">
        <ele>283.1</ele>
        <time>2015-08-30T08:13:00Z</time>
      </trkpt>
      <trkpt lat="47.73215" lon="7.16912">
        <ele>283</ele>
        <time>2015-08-30T08:13:05Z</time>
      </trkpt>
      <trkpt lat="47.73214" lon="7.16919">
        <ele>283</ele>
        <time>2015-08-30T08:13:09Z</time>
      </trkpt>
      <trkpt lat="47.73211" lon="7.16926">
        <ele>282.1</ele>
        <time>2015-08-30T08:13:13Z</time>
      </trkpt>
      <trkpt lat="47.73207" lon="7.1693">
        <ele>281.5</ele>
        <time>2015-08-30T08:13:16Z</time>
      </trkpt>
      <trkpt lat="47.73205" lon="7.16936">
        <ele>281.3</ele>
        <time>2015-08-30T08:13:21Z</time>
      </trkpt>
      <trkpt lat="47.73202" lon="7.16942">
        <ele>280.5</ele>
        <time>2015-08-30T08:13:25Z</time>
      </trkpt>
      <trkpt lat="47.73199" lon="7.16947">
        <ele>280.5</ele>
        <time>2015-08-30T08:13:29Z</time>
      </trkpt>
      <trkpt lat="47.73199" lon="7.16961">
        <ele>280</ele>
        <time>2015-08-30T08:13:36Z</time>
      </trkpt>
      <trkpt lat="47.73197" lon="7.16967">
        <ele>280</ele>
        <time>2015-08-30T08:13:41Z</time>
      </trkpt>
      <trkpt lat="47.73194" lon="7.16973">
        <ele>280</ele>
        <time>2015-08-30T08:13:46Z</time>
      </trkpt>
      <trkpt lat="47.73192" lon="7.16988">
        <ele>280</ele>
        <time>2015-08-30T08:13:55Z</time>
      </trkpt>
      <trkpt lat="47.73184" lon="7.16998">
        <ele>280</ele>
        <time>2015-08-30T08:14:01Z</time>
      </trkpt>
      <trkpt lat="47.73181" lon="7.17011">
        <ele>281</ele>
        <time>2015-08-30T08:14:10Z</time>
      </trkpt>
      <trkpt lat="47.73177" lon="7.1703">
        <ele>281</ele>
        <time>2015-08-30T08:14:19Z</time>
      </trkpt>
      <trkpt lat="47.73173" lon="7.17034">
        <ele>281</ele>
        <time>2015-08-30T08:14:23Z</time>
      </trkpt>
      <trkpt lat="47.73172" lon="7.17041">
        <ele>281.5</ele>
        <time>2015-08-30T08:14:28Z</time>
      </trkpt>
      <trkpt lat="47.7317" lon="7.17049">
        <ele>282</ele>
        <time>2015-08-30T08:14:33Z</time>
      </trkpt>
      <trkpt lat="47.73166" lon="7.17053">
        <ele>283</ele>
        <time>2015-08-30T08:14:36Z</time>
      </trkpt>
      <trkpt lat="47.73163" lon="7.17059">
        <ele>283</ele>
        <time>2015-08-30T08:14:39Z</time>
      </trkpt>
      <trkpt lat="47.73157" lon="7.17071">
        <ele>284</ele>
        <time>2015-08-30T08:14:45Z</time>
      </trkpt>
      <trkpt lat="47.73153" lon="7.17075">
        <ele>284</ele>
        <time>2015-08-30T08:14:48Z</time>
      </trkpt>
      <trkpt lat="47.73149" lon="7.17079">
        <ele>284</ele>
        <time>2015-08-30T08:14:51Z</time>
      </trkpt>
      <trkpt lat="47.73145" lon="7.17085">
        <ele>284</ele>
        <time>2015-08-30T08:14:55Z</time>
      </trkpt>
      <trkpt lat="47.73137" lon="7.17102">
        <ele>285</ele>
        <time>2015-08-30T08:15:03Z</time>
      </trkpt>
      <trkpt lat="47.73134" lon="7.1711">
        <ele>285</ele>
        <time>2015-08-30T08:15:08Z</time>
      </trkpt>
      <trkpt lat="47.73132" lon="7.17118">
        <ele>285</ele>
        <time>2015-08-30T08:15:12Z</time>
      </trkpt>
      <trkpt lat="47.73129" lon="7.17131">
        <ele>286</ele>
        <time>2015-08-30T08:15:21Z</time>
      </trkpt>
      <trkpt lat="47.73128" lon="7.17137">
        <ele>286</ele>
        <time>2015-08-30T08:15:28Z</time>
      </trkpt>
      <trkpt lat="47.73125" lon="7.17143">
        <ele>286</ele>
        <time>2015-08-30T08:15:32Z</time>
      </trkpt>
      <trkpt lat="47.73121" lon="7.17148">
        <ele>287</ele>
        <time>2015-08-30T08:15:36Z</time>
      </trkpt>
      <trkpt lat="47.73119" lon="7.17154">
        <ele>287</ele>
        <time>2015-08-30T08:15:41Z</time>
      </trkpt>
      <trkpt lat="47.73117" lon="7.17161">
        <ele>287</ele>
        <time>2015-08-30T08:15:48Z</time>
      </trkpt>
      <trkpt lat="47.73113" lon="7.17173">
        <ele>287.9</ele>
        <time>2015-08-30T08:15:53Z</time>
      </trkpt>
      <trkpt lat="47.7311" lon="7.17178">
        <ele>288</ele>
        <time>2015-08-30T08:15:56Z</time>
      </trkpt>
      <trkpt lat="47.73106" lon="7.17184">
        <ele>288</ele>
        <time>2015-08-30T08:16:00Z</time>
      </trkpt>
      <trkpt lat="47.73099" lon="7.17202">
        <ele>289</ele>
        <time>2015-08-30T08:16:09Z</time>
      </trkpt>
      <trkpt lat="47.73096" lon="7.17207">
        <ele>289</ele>
        <time>2015-08-30T08:16:13Z</time>
      </trkpt>
      <trkpt lat="47.73092" lon="7.1722">
        <ele>289.9</ele>
        <time>2015-08-30T08:16:22Z</time>
      </trkpt>
      <trkpt lat="47.7309" lon="7.17227">
        <ele>290</ele>
        <time>2015-08-30T08:16:27Z</time>
      </trkpt>
      <trkpt lat="47.73087" lon="7.17233">
        <ele>290</ele>
        <time>2015-08-30T08:16:31Z</time>
      </trkpt>
      <trkpt lat="47.73084" lon="7.1724">
        <ele>290</ele>
        <time>2015-08-30T08:16:34Z</time>
      </trkpt>
      <trkpt lat="47.73076" lon="7.1725">
        <ele>291</ele>
        <time>2015-08-30T08:16:42Z</time>
      </trkpt>
      <trkpt lat="47.73073" lon="7.17256">
        <ele>291</ele>
        <time>2015-08-30T08:16:46Z</time>
      </trkpt>
      <trkpt lat="47.73069" lon="7.17263">
        <ele>292</ele>
        <time>2015-08-30T08:16:50Z</time>
      </trkpt>
      <trkpt lat="47.73067" lon="7.1727">
        <ele>292</ele>
        <time>2015-08-30T08:16:54Z</time>
      </trkpt>
      <trkpt lat="47.73068" lon="7.17277">
        <ele>292</ele>
        <time>2015-08-30T08:16:59Z</time>
      </trkpt>
      <trkpt lat="47.73072" lon="7.1729">
        <ele>292</ele>
        <time>2015-08-30T08:17:06Z</time>
      </trkpt>
      <trkpt lat="47.73075" lon="7.17296">
        <ele>292.5</ele>
        <time>2015-08-30T08:17:10Z</time>
      </trkpt>
      <trkpt lat="47.73075" lon="7.17303">
        <ele>292.5</ele>
        <time>2015-08-30T08:17:14Z</time>
      </trkpt>
      <trkpt lat="47.73071" lon="7.17315">
        <ele>293</ele>
        <time>2015-08-30T08:17:21Z</time>
      </trkpt>
      <trkpt lat="47.73067" lon="7.1732">
        <ele>293</ele>
        <time>2015-08-30T08:17:25Z</time>
      </trkpt>
      <trkpt lat="47.73063" lon="7.17324">
        <ele>293</ele>
        <time>2015-08-30T08:17:28Z</time>
      </trkpt>
      <trkpt lat="47.73058" lon="7.17328">
        <ele>293</ele>
        <time>2015-08-30T08:17:32Z</time>
      </trkpt>
      <trkpt lat="47.73054" lon="7.17327">
        <ele>292.5</ele>
        <time>2015-08-30T08:17:39Z</time>
      </trkpt>
      <trkpt lat="47.73049" lon="7.17324">
        <ele>292</ele>
        <time>2015-08-30T08:17:46Z</time>
      </trkpt>
      <trkpt lat="47.73046" lon="7.17317">
        <ele>292</ele>
        <time>2015-08-30T08:17:52Z</time>
      </trkpt>
      <trkpt lat="47.73047" lon="7.17307">
        <ele>292</ele>
        <time>2015-08-30T08:18:11Z</time>
      </trkpt>
      <trkpt lat="47.73052" lon="7.17304">
        <ele>292</ele>
        <time>2015-08-30T08:18:17Z</time>
      </trkpt>
      <trkpt lat="47.73054" lon="7.17298">
        <ele>292</ele>
        <time>2015-08-30T08:18:22Z</time>
      </trkpt>
      <trkpt lat="47.73049" lon="7.17307">
        <ele>292</ele>
        <time>2015-08-30T08:18:31Z</time>
      </trkpt>
      <trkpt lat="47.73045" lon="7.17312">
        <ele>292</ele>
        <time>2015-08-30T08:18:33Z</time>
      </trkpt>
      <trkpt lat="47.7304" lon="7.17315">
        <ele>292</ele>
        <time>2015-08-30T08:18:35Z</time>
      </trkpt>
      <trkpt lat="47.7303" lon="7.1732">
        <ele>293</ele>
        <time>2015-08-30T08:18:40Z</time>
      </trkpt>
      <trkpt lat="47.73038" lon="7.17326">
        <ele>293</ele>
        <time>2015-08-30T08:18:48Z</time>
      </trkpt>
      <trkpt lat="47.73046" lon="7.17335">
        <ele>293.8</ele>
        <time>2015-08-30T08:18:54Z</time>
      </trkpt>
      <trkpt lat="47.73049" lon="7.17353">
        <ele>294</ele>
        <time>2015-08-30T08:18:59Z</time>
      </trkpt>
      <trkpt lat="47.7305" lon="7.17374">
        <ele>294</ele>
        <time>2015-08-30T08:19:02Z</time>
      </trkpt>
      <trkpt lat="47.73055" lon="7.17399">
        <ele>294</ele>
        <time>2015-08-30T08:19:03Z</time>
      </trkpt>
      <trkpt lat="47.73056" lon="7.17417">
        <ele>294</ele>
        <time>2015-08-30T08:19:09Z</time>
      </trkpt>
      <trkpt lat="47.73053" lon="7.17397">
        <ele>294</ele>
        <time>2015-08-30T08:19:13Z</time>
      </trkpt>
      <trkpt lat="47.73047" lon="7.17378">
        <ele>294</ele>
        <time>2015-08-30T08:19:22Z</time>
      </trkpt>
      <trkpt lat="47.73042" lon="7.17383">
        <ele>294</ele>
        <time>2015-08-30T08:19:28Z</time>
      </trkpt>
      <trkpt lat="47.73036" lon="7.17388">
        <ele>294</ele>
        <time>2015-08-30T08:19:31Z</time>
      </trkpt>
      <trkpt lat="47.73031" lon="7.17392">
        <ele>294</ele>
        <time>2015-08-30T08:19:33Z</time>
      </trkpt>
      <trkpt lat="47.7302" lon="7.17397">
        <ele>294</ele>
        <time>2015-08-30T08:19:37Z</time>
      </trkpt>
      <trkpt lat="47.73015" lon="7.17398">
        <ele>294</ele>
        <time>2015-08-30T08:19:40Z</time>
      </trkpt>
      <trkpt lat="47.73009" lon="7.17402">
        <ele>294</ele>
        <time>2015-08-30T08:19:44Z</time>
      </trkpt>
      <trkpt lat="47.73006" lon="7.17407">
        <ele>294</ele>
        <time>2015-08-30T08:19:47Z</time>
      </trkpt>
      <trkpt lat="47.73" lon="7.17409">
        <ele>294</ele>
        <time>2015-08-30T08:20:11Z</time>
      </trkpt>
      <trkpt lat="47.72993" lon="7.17417">
        <ele>294</ele>
        <time>2015-08-30T08:20:19Z</time>
      </trkpt>
      <trkpt lat="47.72984" lon="7.17423">
        <ele>294</ele>
        <time>2015-08-30T08:20:27Z</time>
      </trkpt>
      <trkpt lat="47.72978" lon="7.17429">
        <ele>294</ele>
        <time>2015-08-30T08:20:32Z</time>
      </trkpt>
      <trkpt lat="47.72974" lon="7.17432">
        <ele>294</ele>
        <time>2015-08-30T08:20:39Z</time>
      </trkpt>
      <trkpt lat="47.72969" lon="7.17434">
        <ele>295</ele>
        <time>2015-08-30T08:20:44Z</time>
      </trkpt>
      <trkpt lat="47.72965" lon="7.17438">
        <ele>294.2</ele>
        <time>2015-08-30T08:20:52Z</time>
      </trkpt>
      <trkpt lat="47.72959" lon="7.17439">
        <ele>294</ele>
        <time>2015-08-30T08:21:02Z</time>
      </trkpt>
      <trkpt lat="47.72954" lon="7.17441">
        <ele>294</ele>
        <time>2015-08-30T08:21:12Z</time>
      </trkpt>
      <trkpt lat="47.72948" lon="7.17439">
        <ele>294</ele>
        <time>2015-08-30T08:21:30Z</time>
      </trkpt>
      <trkpt lat="47.72944" lon="7.17438">
        <ele>294</ele>
        <time>2015-08-30T08:21:33Z</time>
      </trkpt>
      <trkpt lat="47.72939" lon="7.17443">
        <ele>294</ele>
        <time>2015-08-30T08:21:37Z</time>
      </trkpt>
      <trkpt lat="47.72934" lon="7.17449">
        <ele>294</ele>
        <time>2015-08-30T08:21:41Z</time>
      </trkpt>
      <trkpt lat="47.7293" lon="7.17456">
        <ele>294</ele>
        <time>2015-08-30T08:21:44Z</time>
      </trkpt>
      <trkpt lat="47.72926" lon="7.17463">
        <ele>293</ele>
        <time>2015-08-30T08:21:50Z</time>
      </trkpt>
      <trkpt lat="47.72924" lon="7.1747">
        <ele>293</ele>
        <time>2015-08-30T08:21:57Z</time>
      </trkpt>
      <trkpt lat="47.72916" lon="7.17479">
        <ele>293</ele>
        <time>2015-08-30T08:22:05Z</time>
      </trkpt>
      <trkpt lat="47.72912" lon="7.17484">
        <ele>293.8</ele>
        <time>2015-08-30T08:22:10Z</time>
      </trkpt>
      <trkpt lat="47.72907" lon="7.17494">
        <ele>294</ele>
        <time>2015-08-30T08:22:15Z</time>
      </trkpt>
      <trkpt lat="47.72906" lon="7.17501">
        <ele>294</ele>
        <time>2015-08-30T08:22:18Z</time>
      </trkpt>
      <trkpt lat="47.72905" lon="7.17511">
        <ele>294</ele>
        <time>2015-08-30T08:22:22Z</time>
      </trkpt>
      <trkpt lat="47.72903" lon="7.17519">
        <ele>294</ele>
        <time>2015-08-30T08:22:27Z</time>
      </trkpt>
      <trkpt lat="47.72899" lon="7.17525">
        <ele>294.8</ele>
        <time>2015-08-30T08:22:32Z</time>
      </trkpt>
      <trkpt lat="47.72894" lon="7.17539">
        <ele>296.9</ele>
        <time>2015-08-30T08:22:39Z</time>
      </trkpt>
      <trkpt lat="47.72888" lon="7.17542">
        <ele>299</ele>
        <time>2015-08-30T08:22:44Z</time>
      </trkpt>
      <trkpt lat="47.72885" lon="7.17549">
        <ele>299</ele>
        <time>2015-08-30T08:22:49Z</time>
      </trkpt>
      <trkpt lat="47.72884" lon="7.17557">
        <ele>299.7</ele>
        <time>2015-08-30T08:22:53Z</time>
      </trkpt>
      <trkpt lat="47.72881" lon="7.17564">
        <ele>300</ele>
        <time>2015-08-30T08:22:58Z</time>
      </trkpt>
      <trkpt lat="47.72879" lon="7.17571">
        <ele>300</ele>
        <time>2015-08-30T08:23:03Z</time>
      </trkpt>
      <trkpt lat="47.72873" lon="7.17581">
        <ele>300</ele>
        <time>2015-08-30T08:23:15Z</time>
      </trkpt>
      <trkpt lat="47.72873" lon="7.17589">
        <ele>300</ele>
        <time>2015-08-30T08:23:20Z</time>
      </trkpt>
      <trkpt lat="47.72876" lon="7.17596">
        <ele>299</ele>
        <time>2015-08-30T08:23:26Z</time>
      </trkpt>
      <trkpt lat="47.72874" lon="7.17603">
        <ele>299</ele>
        <time>2015-08-30T08:23:32Z</time>
      </trkpt>
      <trkpt lat="47.72871" lon="7.17609">
        <ele>298</ele>
        <time>2015-08-30T08:23:40Z</time>
      </trkpt>
      <trkpt lat="47.72867" lon="7.17605">
        <ele>296.1</ele>
        <time>2015-08-30T08:23:54Z</time>
      </trkpt>
      <trkpt lat="47.72864" lon="7.17611">
        <ele>296.1</ele>
        <time>2015-08-30T08:23:59Z</time>
      </trkpt>
      <trkpt lat="47.72864" lon="7.17618">
        <ele>295.1</ele>
        <time>2015-08-30T08:24:02Z</time>
      </trkpt>
      <trkpt lat="47.72866" lon="7.17624">
        <ele>295.1</ele>
        <time>2015-08-30T08:24:05Z</time>
      </trkpt>
      <trkpt lat="47.72878" lon="7.17634">
        <ele>294.3</ele>
        <time>2015-08-30T08:24:10Z</time>
      </trkpt>
      <trkpt lat="47.72892" lon="7.17641">
        <ele>293.5</ele>
        <time>2015-08-30T08:24:14Z</time>
      </trkpt>
      <trkpt lat="47.72906" lon="7.17648">
        <ele>292</ele>
        <time>2015-08-30T08:24:23Z</time>
      </trkpt>
      <trkpt lat="47.72911" lon="7.17652">
        <ele>291</ele>
        <time>2015-08-30T08:24:27Z</time>
      </trkpt>
      <trkpt lat="47.72915" lon="7.17659">
        <ele>290</ele>
        <time>2015-08-30T08:24:31Z</time>
      </trkpt>
      <trkpt lat="47.72917" lon="7.17671">
        <ele>289</ele>
        <time>2015-08-30T08:24:40Z</time>
      </trkpt>
      <trkpt lat="47.72921" lon="7.17676">
        <ele>289</ele>
        <time>2015-08-30T08:24:44Z</time>
      </trkpt>
      <trkpt lat="47.72925" lon="7.17681">
        <ele>288</ele>
        <time>2015-08-30T08:24:47Z</time>
      </trkpt>
      <trkpt lat="47.72929" lon="7.17684">
        <ele>288</ele>
        <time>2015-08-30T08:24:50Z</time>
      </trkpt>
      <trkpt lat="47.72937" lon="7.17692">
        <ele>287.1</ele>
        <time>2015-08-30T08:24:59Z</time>
      </trkpt>
      <trkpt lat="47.7294" lon="7.17698">
        <ele>286.3</ele>
        <time>2015-08-30T08:25:04Z</time>
      </trkpt>
      <trkpt lat="47.72943" lon="7.17704">
        <ele>285</ele>
        <time>2015-08-30T08:25:10Z</time>
      </trkpt>
      <trkpt lat="47.72947" lon="7.17707">
        <ele>285</ele>
        <time>2015-08-30T08:25:14Z</time>
      </trkpt>
      <trkpt lat="47.72961" lon="7.17715">
        <ele>284.5</ele>
        <time>2015-08-30T08:25:23Z</time>
      </trkpt>
      <trkpt lat="47.72971" lon="7.1772">
        <ele>284</ele>
        <time>2015-08-30T08:25:27Z</time>
      </trkpt>
      <trkpt lat="47.72975" lon="7.17722">
        <ele>284</ele>
        <time>2015-08-30T08:25:29Z</time>
      </trkpt>
      <trkpt lat="47.72979" lon="7.17727">
        <ele>284</ele>
        <time>2015-08-30T08:25:36Z</time>
      </trkpt>
      <trkpt lat="47.72984" lon="7.1773">
        <ele>284.9</ele>
        <time>2015-08-30T08:25:40Z</time>
      </trkpt>
      <trkpt lat="47.72989" lon="7.17734">
        <ele>285</ele>
        <time>2015-08-30T08:25:45Z</time>
      </trkpt>
      <trkpt lat="47.73003" lon="7.17736">
        <ele>285</ele>
        <time>2015-08-30T08:25:54Z</time>
      </trkpt>
      <trkpt lat="47.73013" lon="7.17739">
        <ele>285</ele>
        <time>2015-08-30T08:26:00Z</time>
      </trkpt>
      <trkpt lat="47.73023" lon="7.1774">
        <ele>285</ele>
        <time>2015-08-30T08:26:06Z</time>
      </trkpt>
      <trkpt lat="47.73032" lon="7.17745">
        <ele>284.5</ele>
        <time>2015-08-30T08:26:13Z</time>
      </trkpt>
      <trkpt lat="47.73037" lon="7.17749">
        <ele>284</ele>
        <time>2015-08-30T08:26:19Z</time>
      </trkpt>
      <trkpt lat="47.73038" lon="7.17759">
        <ele>283.2</ele>
        <time>2015-08-30T08:26:26Z</time>
      </trkpt>
      <trkpt lat="47.73042" lon="7.17765">
        <ele>283.2</ele>
        <time>2015-08-30T08:26:30Z</time>
      </trkpt>
      <trkpt lat="47.73046" lon="7.17771">
        <ele>281.6</ele>
        <time>2015-08-30T08:26:33Z</time>
      </trkpt>
      <trkpt lat="47.73048" lon="7.17778">
        <ele>281.1</ele>
        <time>2015-08-30T08:26:36Z</time>
      </trkpt>
      <trkpt lat="47.7305" lon="7.17794">
        <ele>281</ele>
        <time>2015-08-30T08:26:43Z</time>
      </trkpt>
      <trkpt lat="47.73054" lon="7.17807">
        <ele>281</ele>
        <time>2015-08-30T08:26:52Z</time>
      </trkpt>
      <trkpt lat="47.73055" lon="7.17822">
        <ele>280.1</ele>
        <time>2015-08-30T08:27:00Z</time>
      </trkpt>
      <trkpt lat="47.73051" lon="7.17835">
        <ele>279</ele>
        <time>2015-08-30T08:27:11Z</time>
      </trkpt>
      <trkpt lat="47.73051" lon="7.17848">
        <ele>279</ele>
        <time>2015-08-30T08:27:18Z</time>
      </trkpt>
      <trkpt lat="47.73047" lon="7.17854">
        <ele>279</ele>
        <time>2015-08-30T08:27:22Z</time>
      </trkpt>
      <trkpt lat="47.73042" lon="7.17859">
        <ele>279</ele>
        <time>2015-08-30T08:27:25Z</time>
      </trkpt>
      <trkpt lat="47.73046" lon="7.17864">
        <ele>279</ele>
        <time>2015-08-30T08:27:35Z</time>
      </trkpt>
      <trkpt lat="47.73049" lon="7.17869">
        <ele>279</ele>
        <time>2015-08-30T08:27:40Z</time>
      </trkpt>
      <trkpt lat="47.73053" lon="7.17874">
        <ele>279</ele>
        <time>2015-08-30T08:27:47Z</time>
      </trkpt>
      <trkpt lat="47.73057" lon="7.17873">
        <ele>278</ele>
        <time>2015-08-30T08:28:03Z</time>
      </trkpt>
      <trkpt lat="47.73059" lon="7.17887">
        <ele>278</ele>
        <time>2015-08-30T08:28:10Z</time>
      </trkpt>
      <trkpt lat="47.73058" lon="7.17894">
        <ele>277.2</ele>
        <time>2015-08-30T08:28:16Z</time>
      </trkpt>
      <trkpt lat="47.73061" lon="7.17899">
        <ele>277.2</ele>
        <time>2015-08-30T08:28:19Z</time>
      </trkpt>
      <trkpt lat="47.73068" lon="7.17909">
        <ele>277</ele>
        <time>2015-08-30T08:28:27Z</time>
      </trkpt>
      <trkpt lat="47.73075" lon="7.17928">
        <ele>276</ele>
        <time>2015-08-30T08:28:37Z</time>
      </trkpt>
      <trkpt lat="47.73077" lon="7.17942">
        <ele>276</ele>
        <time>2015-08-30T08:28:43Z</time>
      </trkpt>
      <trkpt lat="47.73079" lon="7.17949">
        <ele>276</ele>
        <time>2015-08-30T08:28:46Z</time>
      </trkpt>
      <trkpt lat="47.73083" lon="7.17962">
        <ele>276</ele>
        <time>2015-08-30T08:28:55Z</time>
      </trkpt>
      <trkpt lat="47.73087" lon="7.17966">
        <ele>276</ele>
        <time>2015-08-30T08:28:59Z</time>
      </trkpt>
      <trkpt lat="47.73088" lon="7.17974">
        <ele>276.9</ele>
        <time>2015-08-30T08:29:03Z</time>
      </trkpt>
      <trkpt lat="47.73087" lon="7.17989">
        <ele>278</ele>
        <time>2015-08-30T08:29:10Z</time>
      </trkpt>
      <trkpt lat="47.73086" lon="7.17996">
        <ele>278.9</ele>
        <time>2015-08-30T08:29:16Z</time>
      </trkpt>
      <trkpt lat="47.73093" lon="7.18012">
        <ele>280</ele>
        <time>2015-08-30T08:29:23Z</time>
      </trkpt>
      <trkpt lat="47.73095" lon="7.18019">
        <ele>281</ele>
        <time>2015-08-30T08:29:25Z</time>
      </trkpt>
      <trkpt lat="47.73098" lon="7.18027">
        <ele>281</ele>
        <time>2015-08-30T08:29:28Z</time>
      </trkpt>
      <trkpt lat="47.73102" lon="7.18041">
        <ele>282</ele>
        <time>2015-08-30T08:29:33Z</time>
      </trkpt>
      <trkpt lat="47.73105" lon="7.18048">
        <ele>284.7</ele>
        <time>2015-08-30T08:29:36Z</time>
      </trkpt>
      <trkpt lat="47.73108" lon="7.18053">
        <ele>288.7</ele>
        <time>2015-08-30T08:29:40Z</time>
      </trkpt>
      <trkpt lat="47.73111" lon="7.18067">
        <ele>294.9</ele>
        <time>2015-08-30T08:29:50Z</time>
      </trkpt>
      <trkpt lat="47.73118" lon="7.18077">
        <ele>295</ele>
        <time>2015-08-30T08:29:58Z</time>
      </trkpt>
      <trkpt lat="47.73122" lon="7.18089">
        <ele>295</ele>
        <time>2015-08-30T08:30:04Z</time>
      </trkpt>
      <trkpt lat="47.73124" lon="7.18096">
        <ele>295</ele>
        <time>2015-08-30T08:30:07Z</time>
      </trkpt>
      <trkpt lat="47.73126" lon="7.18102">
        <ele>295</ele>
        <time>2015-08-30T08:30:10Z</time>
      </trkpt>
      <trkpt lat="47.73126" lon="7.1811">
        <ele>295</ele>
        <time>2015-08-30T08:30:16Z</time>
      </trkpt>
      <trkpt lat="47.73127" lon="7.18116">
        <ele>295</ele>
        <time>2015-08-30T08:30:22Z</time>
      </trkpt>
      <trkpt lat="47.73133" lon="7.18134">
        <ele>291.2</ele>
        <time>2015-08-30T08:30:32Z</time>
      </trkpt>
      <trkpt lat="47.73143" lon="7.1815">
        <ele>288.6</ele>
        <time>2015-08-30T08:30:43Z</time>
      </trkpt>
      <trkpt lat="47.7315" lon="7.18167">
        <ele>284.6</ele>
        <time>2015-08-30T08:30:52Z</time>
      </trkpt>
      <trkpt lat="47.73151" lon="7.18175">
        <ele>284</ele>
        <time>2015-08-30T08:30:56Z</time>
      </trkpt>
      <trkpt lat="47.73157" lon="7.18182">
        <ele>283.1</ele>
        <time>2015-08-30T08:31:02Z</time>
      </trkpt>
      <trkpt lat="47.73162" lon="7.18193">
        <ele>283</ele>
        <time>2015-08-30T08:31:11Z</time>
      </trkpt>
      <trkpt lat="47.73165" lon="7.182">
        <ele>282.1</ele>
        <time>2015-08-30T08:31:15Z</time>
      </trkpt>
      <trkpt lat="47.73165" lon="7.18208">
        <ele>281.3</ele>
        <time>2015-08-30T08:31:21Z</time>
      </trkpt>
      <trkpt lat="47.73166" lon="7.18216">
        <ele>281.1</ele>
        <time>2015-08-30T08:31:26Z</time>
      </trkpt>
      <trkpt lat="47.73169" lon="7.18222">
        <ele>280.3</ele>
        <time>2015-08-30T08:31:30Z</time>
      </trkpt>
      <trkpt lat="47.73171" lon="7.18229">
        <ele>279.1</ele>
        <time>2015-08-30T08:31:34Z</time>
      </trkpt>
      <trkpt lat="47.73174" lon="7.18235">
        <ele>278.1</ele>
        <time>2015-08-30T08:31:38Z</time>
      </trkpt>
      <trkpt lat="47.73179" lon="7.18239">
        <ele>278.1</ele>
        <time>2015-08-30T08:31:41Z</time>
      </trkpt>
      <trkpt lat="47.73181" lon="7.18244">
        <ele>278</ele>
        <time>2015-08-30T08:31:44Z</time>
      </trkpt>
      <trkpt lat="47.73179" lon="7.18257">
        <ele>277.3</ele>
        <time>2015-08-30T08:31:52Z</time>
      </trkpt>
      <trkpt lat="47.73182" lon="7.18263">
        <ele>277</ele>
        <time>2015-08-30T08:31:56Z</time>
      </trkpt>
      <trkpt lat="47.73187" lon="7.18266">
        <ele>277</ele>
        <time>2015-08-30T08:31:59Z</time>
      </trkpt>
      <trkpt lat="47.73191" lon="7.18271">
        <ele>277</ele>
        <time>2015-08-30T08:32:05Z</time>
      </trkpt>
      <trkpt lat="47.73194" lon="7.18276">
        <ele>277</ele>
        <time>2015-08-30T08:32:08Z</time>
      </trkpt>
      <trkpt lat="47.73197" lon="7.18283">
        <ele>277</ele>
        <time>2015-08-30T08:32:12Z</time>
      </trkpt>
      <trkpt lat="47.73191" lon="7.18285">
        <ele>277</ele>
        <time>2015-08-30T08:32:21Z</time>
      </trkpt>
      <trkpt lat="47.73185" lon="7.18287">
        <ele>277</ele>
        <time>2015-08-30T08:32:23Z</time>
      </trkpt>
      <trkpt lat="47.73175" lon="7.18291">
        <ele>276.1</ele>
        <time>2015-08-30T08:32:30Z</time>
      </trkpt>
      <trkpt lat="47.73169" lon="7.18293">
        <ele>276</ele>
        <time>2015-08-30T08:32:32Z</time>
      </trkpt>
      <trkpt lat="47.73165" lon="7.18295">
        <ele>276</ele>
        <time>2015-08-30T08:32:36Z</time>
      </trkpt>
      <trkpt lat="47.73157" lon="7.18305">
        <ele>275</ele>
        <time>2015-08-30T08:32:44Z</time>
      </trkpt>
      <trkpt lat="47.73153" lon="7.18311">
        <ele>273.2</ele>
        <time>2015-08-30T08:32:45Z</time>
      </trkpt>
      <trkpt lat="47.73148" lon="7.18313">
        <ele>273.2</ele>
        <time>2015-08-30T08:32:49Z</time>
      </trkpt>
      <trkpt lat="47.73144" lon="7.18318">
        <ele>271</ele>
        <time>2015-08-30T08:32:55Z</time>
      </trkpt>
      <trkpt lat="47.73134" lon="7.1832">
        <ele>269.5</ele>
        <time>2015-08-30T08:33:08Z</time>
      </trkpt>
      <trkpt lat="47.73128" lon="7.18322">
        <ele>267.3</ele>
        <time>2015-08-30T08:33:16Z</time>
      </trkpt>
      <trkpt lat="47.73124" lon="7.18326">
        <ele>267.3</ele>
        <time>2015-08-30T08:33:19Z</time>
      </trkpt>
      <trkpt lat="47.7312" lon="7.18329">
        <ele>267</ele>
        <time>2015-08-30T08:33:22Z</time>
      </trkpt>
      <trkpt lat="47.73115" lon="7.1833">
        <ele>267</ele>
        <time>2015-08-30T08:33:28Z</time>
      </trkpt>
      <trkpt lat="47.7311" lon="7.18333">
        <ele>267</ele>
        <time>2015-08-30T08:33:34Z</time>
      </trkpt>
      <trkpt lat="47.73101" lon="7.18338">
        <ele>267</ele>
        <time>2015-08-30T08:33:40Z</time>
      </trkpt>
      <trkpt lat="47.73093" lon="7.18343">
        <ele>267</ele>
        <time>2015-08-30T08:33:45Z</time>
      </trkpt>
      <trkpt lat="47.73083" lon="7.18346">
        <ele>268</ele>
        <time>2015-08-30T08:33:52Z</time>
      </trkpt>
      <trkpt lat="47.73078" lon="7.18346">
        <ele>268</ele>
        <time>2015-08-30T08:33:56Z</time>
      </trkpt>
      <trkpt lat="47.73068" lon="7.18351">
        <ele>268</ele>
        <time>2015-08-30T08:34:04Z</time>
      </trkpt>
      <trkpt lat="47.73062" lon="7.18355">
        <ele>268.9</ele>
        <time>2015-08-30T08:34:09Z</time>
      </trkpt>
      <trkpt lat="47.73056" lon="7.18358">
        <ele>269</ele>
        <time>2015-08-30T08:34:13Z</time>
      </trkpt>
      <trkpt lat="47.73051" lon="7.18358">
        <ele>269</ele>
        <time>2015-08-30T08:34:15Z</time>
      </trkpt>
      <trkpt lat="47.73037" lon="7.18358">
        <ele>271.6</ele>
        <time>2015-08-30T08:34:25Z</time>
      </trkpt>
      <trkpt lat="47.73032" lon="7.18358">
        <ele>272.5</ele>
        <time>2015-08-30T08:34:28Z</time>
      </trkpt>
      <trkpt lat="47.73026" lon="7.18359">
        <ele>272.5</ele>
        <time>2015-08-30T08:34:30Z</time>
      </trkpt>
      <trkpt lat="47.73016" lon="7.18362">
        <ele>274.9</ele>
        <time>2015-08-30T08:34:38Z</time>
      </trkpt>
      <trkpt lat="47.7301" lon="7.18362">
        <ele>277.8</ele>
        <time>2015-08-30T08:34:44Z</time>
      </trkpt>
      <trkpt lat="47.73004" lon="7.18363">
        <ele>277.8</ele>
        <time>2015-08-30T08:34:48Z</time>
      </trkpt>
      <trkpt lat="47.7299" lon="7.18368">
        <ele>281.8</ele>
        <time>2015-08-30T08:34:59Z</time>
      </trkpt>
      <trkpt lat="47.72985" lon="7.18369">
        <ele>282.7</ele>
        <time>2015-08-30T08:35:02Z</time>
      </trkpt>
      <trkpt lat="47.72975" lon="7.18371">
        <ele>283</ele>
        <time>2015-08-30T08:35:09Z</time>
      </trkpt>
      <trkpt lat="47.72964" lon="7.18368">
        <ele>283</ele>
        <time>2015-08-30T08:35:23Z</time>
      </trkpt>
      <trkpt lat="47.72955" lon="7.1837">
        <ele>283</ele>
        <time>2015-08-30T08:35:29Z</time>
      </trkpt>
      <trkpt lat="47.72949" lon="7.18373">
        <ele>283</ele>
        <time>2015-08-30T08:35:34Z</time>
      </trkpt>
      <trkpt lat="47.72942" lon="7.18375">
        <ele>282.1</ele>
        <time>2015-08-30T08:35:41Z</time>
      </trkpt>
      <trkpt lat="47.72937" lon="7.18373">
        <ele>281.3</ele>
        <time>2015-08-30T08:35:46Z</time>
      </trkpt>
      <trkpt lat="47.72933" lon="7.18373">
        <ele>281</ele>
        <time>2015-08-30T08:35:51Z</time>
      </trkpt>
      <trkpt lat="47.72919" lon="7.18369">
        <ele>280</ele>
        <time>2015-08-30T08:36:02Z</time>
      </trkpt>
      <trkpt lat="47.72909" lon="7.18368">
        <ele>280</ele>
        <time>2015-08-30T08:36:08Z</time>
      </trkpt>
      <trkpt lat="47.72905" lon="7.18364">
        <ele>280</ele>
        <time>2015-08-30T08:36:12Z</time>
      </trkpt>
      <trkpt lat="47.72896" lon="7.18358">
        <ele>280</ele>
        <time>2015-08-30T08:36:19Z</time>
      </trkpt>
      <trkpt lat="47.72883" lon="7.18353">
        <ele>280</ele>
        <time>2015-08-30T08:36:30Z</time>
      </trkpt>
      <trkpt lat="47.72878" lon="7.18349">
        <ele>280.9</ele>
        <time>2015-08-30T08:36:34Z</time>
      </trkpt>
      <trkpt lat="47.72868" lon="7.18335">
        <ele>282</ele>
        <time>2015-08-30T08:36:45Z</time>
      </trkpt>
      <trkpt lat="47.72858" lon="7.18328">
        <ele>282.1</ele>
        <time>2015-08-30T08:36:52Z</time>
      </trkpt>
      <trkpt lat="47.72854" lon="7.18323">
        <ele>282</ele>
        <time>2015-08-30T08:36:56Z</time>
      </trkpt>
      <trkpt lat="47.7285" lon="7.18311">
        <ele>282</ele>
        <time>2015-08-30T08:37:03Z</time>
      </trkpt>
      <trkpt lat="47.72848" lon="7.18304">
        <ele>282</ele>
        <time>2015-08-30T08:37:09Z</time>
      </trkpt>
      <trkpt lat="47.72844" lon="7.18306">
        <ele>282</ele>
        <time>2015-08-30T08:37:15Z</time>
      </trkpt>
      <trkpt lat="47.72839" lon="7.18311">
        <ele>281</ele>
        <time>2015-08-30T08:37:33Z</time>
      </trkpt>
      <trkpt lat="47.72834" lon="7.18315">
        <ele>279.6</ele>
        <time>2015-08-30T08:37:37Z</time>
      </trkpt>
      <trkpt lat="47.72831" lon="7.18302">
        <ele>277</ele>
        <time>2015-08-30T08:38:05Z</time>
      </trkpt>
      <trkpt lat="47.72824" lon="7.18292">
        <ele>277</ele>
        <time>2015-08-30T08:38:13Z</time>
      </trkpt>
      <trkpt lat="47.72818" lon="7.1828">
        <ele>277</ele>
        <time>2015-08-30T08:38:19Z</time>
      </trkpt>
      <trkpt lat="47.72811" lon="7.18268">
        <ele>277.9</ele>
        <time>2015-08-30T08:38:27Z</time>
      </trkpt>
      <trkpt lat="47.72806" lon="7.18253">
        <ele>279</ele>
        <time>2015-08-30T08:38:35Z</time>
      </trkpt>
      <trkpt lat="47.72801" lon="7.18244">
        <ele>279</ele>
        <time>2015-08-30T08:38:41Z</time>
      </trkpt>
      <trkpt lat="47.72799" lon="7.18237">
        <ele>279</ele>
        <time>2015-08-30T08:38:45Z</time>
      </trkpt>
      <trkpt lat="47.72799" lon="7.1823">
        <ele>279.9</ele>
        <time>2015-08-30T08:38:50Z</time>
      </trkpt>
      <trkpt lat="47.72799" lon="7.18221">
        <ele>280.5</ele>
        <time>2015-08-30T08:38:54Z</time>
      </trkpt>
      <trkpt lat="47.72798" lon="7.18212">
        <ele>280.5</ele>
        <time>2015-08-30T08:38:57Z</time>
      </trkpt>
      <trkpt lat="47.72797" lon="7.18206">
        <ele>281.5</ele>
        <time>2015-08-30T08:39:00Z</time>
      </trkpt>
      <trkpt lat="47.72789" lon="7.18203">
        <ele>282.7</ele>
        <time>2015-08-30T08:39:07Z</time>
      </trkpt>
      <trkpt lat="47.72784" lon="7.18198">
        <ele>283</ele>
        <time>2015-08-30T08:39:13Z</time>
      </trkpt>
      <trkpt lat="47.7278" lon="7.18192">
        <ele>283</ele>
        <time>2015-08-30T08:39:17Z</time>
      </trkpt>
      <trkpt lat="47.72776" lon="7.18187">
        <ele>283</ele>
        <time>2015-08-30T08:39:21Z</time>
      </trkpt>
      <trkpt lat="47.72771" lon="7.18186">
        <ele>283</ele>
        <time>2015-08-30T08:39:25Z</time>
      </trkpt>
      <trkpt lat="47.7276" lon="7.18175">
        <ele>283</ele>
        <time>2015-08-30T08:39:36Z</time>
      </trkpt>
      <trkpt lat="47.72752" lon="7.18173">
        <ele>282</ele>
        <time>2015-08-30T08:39:42Z</time>
      </trkpt>
      <trkpt lat="47.72746" lon="7.18172">
        <ele>282</ele>
        <time>2015-08-30T08:39:46Z</time>
      </trkpt>
      <trkpt lat="47.72735" lon="7.18174">
        <ele>282</ele>
        <time>2015-08-30T08:39:53Z</time>
      </trkpt>
      <trkpt lat="47.72721" lon="7.18183">
        <ele>282</ele>
        <time>2015-08-30T08:40:02Z</time>
      </trkpt>
      <trkpt lat="47.72717" lon="7.18196">
        <ele>282</ele>
        <time>2015-08-30T08:40:10Z</time>
      </trkpt>
      <trkpt lat="47.72718" lon="7.18204">
        <ele>282</ele>
        <time>2015-08-30T08:40:14Z</time>
      </trkpt>
      <trkpt lat="47.72721" lon="7.1821">
        <ele>282</ele>
        <time>2015-08-30T08:40:17Z</time>
      </trkpt>
      <trkpt lat="47.72726" lon="7.18214">
        <ele>282</ele>
        <time>2015-08-30T08:40:19Z</time>
      </trkpt>
      <trkpt lat="47.72727" lon="7.18221">
        <ele>282</ele>
        <time>2015-08-30T08:40:26Z</time>
      </trkpt>
      <trkpt lat="47.72724" lon="7.18236">
        <ele>282.5</ele>
        <time>2015-08-30T08:40:33Z</time>
      </trkpt>
      <trkpt lat="47.72721" lon="7.18251">
        <ele>283</ele>
        <time>2015-08-30T08:40:41Z</time>
      </trkpt>
      <trkpt lat="47.72724" lon="7.18264">
        <ele>282.1</ele>
        <time>2015-08-30T08:40:50Z</time>
      </trkpt>
      <trkpt lat="47.72723" lon="7.18275">
        <ele>282</ele>
        <time>2015-08-30T08:40:56Z</time>
      </trkpt>
      <trkpt lat="47.7272" lon="7.18296">
        <ele>281</ele>
        <time>2015-08-30T08:41:06Z</time>
      </trkpt>
      <trkpt lat="47.72719" lon="7.18309">
        <ele>280.1</ele>
        <time>2015-08-30T08:41:11Z</time>
      </trkpt>
      <trkpt lat="47.72715" lon="7.18329">
        <ele>279.1</ele>
        <time>2015-08-30T08:41:23Z</time>
      </trkpt>
      <trkpt lat="47.72713" lon="7.18336">
        <ele>279</ele>
        <time>2015-08-30T08:41:28Z</time>
      </trkpt>
      <trkpt lat="47.7271" lon="7.18344">
        <ele>278</ele>
        <time>2015-08-30T08:41:33Z</time>
      </trkpt>
      <trkpt lat="47.72709" lon="7.18351">
        <ele>278</ele>
        <time>2015-08-30T08:41:37Z</time>
      </trkpt>
      <trkpt lat="47.72709" lon="7.18367">
        <ele>277.1</ele>
        <time>2015-08-30T08:41:45Z</time>
      </trkpt>
      <trkpt lat="47.72704" lon="7.1838">
        <ele>276</ele>
        <time>2015-08-30T08:41:51Z</time>
      </trkpt>
      <trkpt lat="47.72705" lon="7.18389">
        <ele>275</ele>
        <time>2015-08-30T08:41:56Z</time>
      </trkpt>
      <trkpt lat="47.72702" lon="7.18396">
        <ele>275</ele>
        <time>2015-08-30T08:42:00Z</time>
      </trkpt>
      <trkpt lat="47.72701" lon="7.18411">
        <ele>275</ele>
        <time>2015-08-30T08:42:07Z</time>
      </trkpt>
      <trkpt lat="47.727" lon="7.18425">
        <ele>275</ele>
        <time>2015-08-30T08:42:14Z</time>
      </trkpt>
      <trkpt lat="47.72702" lon="7.18431">
        <ele>274</ele>
        <time>2015-08-30T08:42:19Z</time>
      </trkpt>
      <trkpt lat="47.72702" lon="7.1844">
        <ele>274</ele>
        <time>2015-08-30T08:42:22Z</time>
      </trkpt>
      <trkpt lat="47.72698" lon="7.18453">
        <ele>275</ele>
        <time>2015-08-30T08:42:29Z</time>
      </trkpt>
      <trkpt lat="47.72696" lon="7.18459">
        <ele>275</ele>
        <time>2015-08-30T08:42:32Z</time>
      </trkpt>
      <trkpt lat="47.72694" lon="7.18466">
        <ele>275</ele>
        <time>2015-08-30T08:42:36Z</time>
      </trkpt>
      <trkpt lat="47.72692" lon="7.18472">
        <ele>274</ele>
        <time>2015-08-30T08:42:40Z</time>
      </trkpt>
      <trkpt lat="47.72691" lon="7.1848">
        <ele>274</ele>
        <time>2015-08-30T08:42:43Z</time>
      </trkpt>
      <trkpt lat="47.72689" lon="7.18501">
        <ele>273</ele>
        <time>2015-08-30T08:42:50Z</time>
      </trkpt>
      <trkpt lat="47.72688" lon="7.18523">
        <ele>275</ele>
        <time>2015-08-30T08:43:02Z</time>
      </trkpt>
      <trkpt lat="47.72685" lon="7.18533">
        <ele>275</ele>
        <time>2015-08-30T08:43:09Z</time>
      </trkpt>
      <trkpt lat="47.72684" lon="7.18549">
        <ele>275</ele>
        <time>2015-08-30T08:43:18Z</time>
      </trkpt>
      <trkpt lat="47.72684" lon="7.18571">
        <ele>275.5</ele>
        <time>2015-08-30T08:43:28Z</time>
      </trkpt>
      <trkpt lat="47.72684" lon="7.18578">
        <ele>276</ele>
        <time>2015-08-30T08:43:31Z</time>
      </trkpt>
      <trkpt lat="47.72681" lon="7.18591">
        <ele>276</ele>
        <time>2015-08-30T08:43:37Z</time>
      </trkpt>
      <trkpt lat="47.72677" lon="7.18596">
        <ele>276</ele>
        <time>2015-08-30T08:43:42Z</time>
      </trkpt>
      <trkpt lat="47.72676" lon="7.18604">
        <ele>276</ele>
        <time>2015-08-30T08:43:48Z</time>
      </trkpt>
      <trkpt lat="47.72676" lon="7.18611">
        <ele>276</ele>
        <time>2015-08-30T08:43:51Z</time>
      </trkpt>
      <trkpt lat="47.72677" lon="7.18627">
        <ele>275.1</ele>
        <time>2015-08-30T08:43:59Z</time>
      </trkpt>
      <trkpt lat="47.72675" lon="7.18635">
        <ele>274.3</ele>
        <time>2015-08-30T08:44:04Z</time>
      </trkpt>
      <trkpt lat="47.72675" lon="7.18643">
        <ele>274</ele>
        <time>2015-08-30T08:44:07Z</time>
      </trkpt>
      <trkpt lat="47.72672" lon="7.18663">
        <ele>274</ele>
        <time>2015-08-30T08:44:18Z</time>
      </trkpt>
      <trkpt lat="47.72669" lon="7.18679">
        <ele>273.1</ele>
        <time>2015-08-30T08:44:25Z</time>
      </trkpt>
      <trkpt lat="47.72666" lon="7.18685">
        <ele>273</ele>
        <time>2015-08-30T08:44:30Z</time>
      </trkpt>
      <trkpt lat="47.72667" lon="7.18693">
        <ele>273</ele>
        <time>2015-08-30T08:44:32Z</time>
      </trkpt>
      <trkpt lat="47.72665" lon="7.18701">
        <ele>273</ele>
        <time>2015-08-30T08:44:34Z</time>
      </trkpt>
      <trkpt lat="47.72662" lon="7.18721">
        <ele>274</ele>
        <time>2015-08-30T08:44:44Z</time>
      </trkpt>
      <trkpt lat="47.72662" lon="7.18729">
        <ele>274</ele>
        <time>2015-08-30T08:44:49Z</time>
      </trkpt>
      <trkpt lat="47.72661" lon="7.18736">
        <ele>274</ele>
        <time>2015-08-30T08:44:54Z</time>
      </trkpt>
      <trkpt lat="47.72657" lon="7.1875">
        <ele>274</ele>
        <time>2015-08-30T08:45:02Z</time>
      </trkpt>
      <trkpt lat="47.72655" lon="7.18758">
        <ele>274</ele>
        <time>2015-08-30T08:45:05Z</time>
      </trkpt>
      <trkpt lat="47.72653" lon="7.18764">
        <ele>274</ele>
        <time>2015-08-30T08:45:08Z</time>
      </trkpt>
      <trkpt lat="47.72649" lon="7.18782">
        <ele>275</ele>
        <time>2015-08-30T08:45:17Z</time>
      </trkpt>
      <trkpt lat="47.72642" lon="7.18788">
        <ele>275</ele>
        <time>2015-08-30T08:45:22Z</time>
      </trkpt>
      <trkpt lat="47.72639" lon="7.18794">
        <ele>275</ele>
        <time>2015-08-30T08:45:26Z</time>
      </trkpt>
      <trkpt lat="47.72638" lon="7.188">
        <ele>275</ele>
        <time>2015-08-30T08:45:30Z</time>
      </trkpt>
      <trkpt lat="47.72636" lon="7.18807">
        <ele>275</ele>
        <time>2015-08-30T08:45:34Z</time>
      </trkpt>
      <trkpt lat="47.72632" lon="7.18812">
        <ele>275</ele>
        <time>2015-08-30T08:45:38Z</time>
      </trkpt>
      <trkpt lat="47.72628" lon="7.18816">
        <ele>275</ele>
        <time>2015-08-30T08:45:41Z</time>
      </trkpt>
      <trkpt lat="47.72623" lon="7.1882">
        <ele>275</ele>
        <time>2015-08-30T08:45:45Z</time>
      </trkpt>
      <trkpt lat="47.72618" lon="7.1882">
        <ele>275</ele>
        <time>2015-08-30T08:45:50Z</time>
      </trkpt>
      <trkpt lat="47.72613" lon="7.1882">
        <ele>276</ele>
        <time>2015-08-30T08:46:30Z</time>
      </trkpt>
      <trkpt lat="47.72619" lon="7.18816">
        <ele>276</ele>
        <time>2015-08-30T08:46:47Z</time>
      </trkpt>
      <trkpt lat="47.72617" lon="7.18823">
        <ele>276</ele>
        <time>2015-08-30T08:47:10Z</time>
      </trkpt>
      <trkpt lat="47.72613" lon="7.18825">
        <ele>277</ele>
        <time>2015-08-30T08:47:15Z</time>
      </trkpt>
      <trkpt lat="47.72607" lon="7.18824">
        <ele>277</ele>
        <time>2015-08-30T08:47:19Z</time>
      </trkpt>
      <trkpt lat="47.72597" lon="7.18823">
        <ele>277</ele>
        <time>2015-08-30T08:47:26Z</time>
      </trkpt>
      <trkpt lat="47.72591" lon="7.18822">
        <ele>277</ele>
        <time>2015-08-30T08:47:30Z</time>
      </trkpt>
      <trkpt lat="47.72586" lon="7.18819">
        <ele>276.5</ele>
        <time>2015-08-30T08:47:34Z</time>
      </trkpt>
      <trkpt lat="47.72582" lon="7.18818">
        <ele>276.5</ele>
        <time>2015-08-30T08:47:37Z</time>
      </trkpt>
      <trkpt lat="47.72577" lon="7.18816">
        <ele>276</ele>
        <time>2015-08-30T08:47:40Z</time>
      </trkpt>
      <trkpt lat="47.7257" lon="7.18813">
        <ele>276</ele>
        <time>2015-08-30T08:47:45Z</time>
      </trkpt>
      <trkpt lat="47.72556" lon="7.18806">
        <ele>276</ele>
        <time>2015-08-30T08:47:55Z</time>
      </trkpt>
      <trkpt lat="47.72549" lon="7.18799">
        <ele>276.1</ele>
        <time>2015-08-30T08:48:02Z</time>
      </trkpt>
      <trkpt lat="47.72545" lon="7.188">
        <ele>276</ele>
        <time>2015-08-30T08:48:08Z</time>
      </trkpt>
      <trkpt lat="47.72536" lon="7.18791">
        <ele>276</ele>
        <time>2015-08-30T08:48:17Z</time>
      </trkpt>
      <trkpt lat="47.72532" lon="7.18787">
        <ele>276</ele>
        <time>2015-08-30T08:48:19Z</time>
      </trkpt>
      <trkpt lat="47.72528" lon="7.18783">
        <ele>276</ele>
        <time>2015-08-30T08:48:22Z</time>
      </trkpt>
      <trkpt lat="47.72523" lon="7.1878">
        <ele>276</ele>
        <time>2015-08-30T08:48:27Z</time>
      </trkpt>
      <trkpt lat="47.72509" lon="7.18775">
        <ele>276</ele>
        <time>2015-08-30T08:48:34Z</time>
      </trkpt>
      <trkpt lat="47.725" lon="7.1877">
        <ele>276</ele>
        <time>2015-08-30T08:48:41Z</time>
      </trkpt>
      <trkpt lat="47.72496" lon="7.18767">
        <ele>277</ele>
        <time>2015-08-30T08:48:45Z</time>
      </trkpt>
      <trkpt lat="47.72492" lon="7.18762">
        <ele>277</ele>
        <time>2015-08-30T08:48:49Z</time>
      </trkpt>
      <trkpt lat="47.72488" lon="7.18756">
        <ele>277</ele>
        <time>2015-08-30T08:48:53Z</time>
      </trkpt>
      <trkpt lat="47.72484" lon="7.18753">
        <ele>277</ele>
        <time>2015-08-30T08:48:56Z</time>
      </trkpt>
      <trkpt lat="47.7248" lon="7.1875">
        <ele>277</ele>
        <time>2015-08-30T08:48:58Z</time>
      </trkpt>
      <trkpt lat="47.72466" lon="7.18741">
        <ele>278.5</ele>
        <time>2015-08-30T08:49:12Z</time>
      </trkpt>
      <trkpt lat="47.72457" lon="7.18738">
        <ele>279</ele>
        <time>2015-08-30T08:49:18Z</time>
      </trkpt>
      <trkpt lat="47.72453" lon="7.18736">
        <ele>279</ele>
        <time>2015-08-30T08:49:21Z</time>
      </trkpt>
      <trkpt lat="47.72448" lon="7.18733">
        <ele>280</ele>
        <time>2015-08-30T08:49:24Z</time>
      </trkpt>
      <trkpt lat="47.72443" lon="7.18732">
        <ele>280</ele>
        <time>2015-08-30T08:49:27Z</time>
      </trkpt>
      <trkpt lat="47.72434" lon="7.1873">
        <ele>280.7</ele>
        <time>2015-08-30T08:49:32Z</time>
      </trkpt>
      <trkpt lat="47.72425" lon="7.1873">
        <ele>281</ele>
        <time>2015-08-30T08:49:37Z</time>
      </trkpt>
      <trkpt lat="47.72418" lon="7.18728">
        <ele>282</ele>
        <time>2015-08-30T08:49:41Z</time>
      </trkpt>
      <trkpt lat="47.72413" lon="7.18729">
        <ele>282</ele>
        <time>2015-08-30T08:49:45Z</time>
      </trkpt>
      <trkpt lat="47.72404" lon="7.18736">
        <ele>282</ele>
        <time>2015-08-30T08:49:53Z</time>
      </trkpt>
      <trkpt lat="47.72398" lon="7.18735">
        <ele>282</ele>
        <time>2015-08-30T08:49:58Z</time>
      </trkpt>
      <trkpt lat="47.72393" lon="7.18737">
        <ele>282</ele>
        <time>2015-08-30T08:50:02Z</time>
      </trkpt>
      <trkpt lat="47.72389" lon="7.18738">
        <ele>282</ele>
        <time>2015-08-30T08:50:07Z</time>
      </trkpt>
      <trkpt lat="47.72383" lon="7.18739">
        <ele>282</ele>
        <time>2015-08-30T08:50:12Z</time>
      </trkpt>
      <trkpt lat="47.72373" lon="7.18741">
        <ele>280.1</ele>
        <time>2015-08-30T08:50:19Z</time>
      </trkpt>
      <trkpt lat="47.72363" lon="7.18741">
        <ele>280</ele>
        <time>2015-08-30T08:50:27Z</time>
      </trkpt>
      <trkpt lat="47.72354" lon="7.18734">
        <ele>280</ele>
        <time>2015-08-30T08:50:33Z</time>
      </trkpt>
      <trkpt lat="47.72353" lon="7.18727">
        <ele>280</ele>
        <time>2015-08-30T08:50:39Z</time>
      </trkpt>
      <trkpt lat="47.72349" lon="7.18714">
        <ele>280</ele>
        <time>2015-08-30T08:50:46Z</time>
      </trkpt>
      <trkpt lat="47.72346" lon="7.18693">
        <ele>281</ele>
        <time>2015-08-30T08:50:59Z</time>
      </trkpt>
      <trkpt lat="47.72345" lon="7.18681">
        <ele>281.9</ele>
        <time>2015-08-30T08:51:04Z</time>
      </trkpt>
      <trkpt lat="47.72342" lon="7.18674">
        <ele>282</ele>
        <time>2015-08-30T08:51:08Z</time>
      </trkpt>
      <trkpt lat="47.72343" lon="7.18667">
        <ele>282</ele>
        <time>2015-08-30T08:51:13Z</time>
      </trkpt>
      <trkpt lat="47.72344" lon="7.18659">
        <ele>282</ele>
        <time>2015-08-30T08:51:17Z</time>
      </trkpt>
      <trkpt lat="47.72341" lon="7.18645">
        <ele>282</ele>
        <time>2015-08-30T08:51:23Z</time>
      </trkpt>
      <trkpt lat="47.72337" lon="7.18633">
        <ele>282</ele>
        <time>2015-08-30T08:51:27Z</time>
      </trkpt>
      <trkpt lat="47.72337" lon="7.18612">
        <ele>282.8</ele>
        <time>2015-08-30T08:51:38Z</time>
      </trkpt>
      <trkpt lat="47.72336" lon="7.18598">
        <ele>283</ele>
        <time>2015-08-30T08:51:46Z</time>
      </trkpt>
      <trkpt lat="47.72334" lon="7.18592">
        <ele>283</ele>
        <time>2015-08-30T08:51:50Z</time>
      </trkpt>
      <trkpt lat="47.72331" lon="7.18584">
        <ele>283</ele>
        <time>2015-08-30T08:51:53Z</time>
      </trkpt>
      <trkpt lat="47.72328" lon="7.1858">
        <ele>283</ele>
        <time>2015-08-30T08:51:58Z</time>
      </trkpt>
      <trkpt lat="47.72326" lon="7.18586">
        <ele>283</ele>
        <time>2015-08-30T08:52:08Z</time>
      </trkpt>
      <trkpt lat="47.72312" lon="7.18584">
        <ele>283.6</ele>
        <time>2015-08-30T08:52:22Z</time>
      </trkpt>
      <trkpt lat="47.72308" lon="7.18585">
        <ele>284</ele>
        <time>2015-08-30T08:52:27Z</time>
      </trkpt>
      <trkpt lat="47.72297" lon="7.18586">
        <ele>284</ele>
        <time>2015-08-30T08:52:32Z</time>
      </trkpt>
      <trkpt lat="47.72285" lon="7.18589">
        <ele>283.2</ele>
        <time>2015-08-30T08:52:37Z</time>
      </trkpt>
      <trkpt lat="47.72275" lon="7.18587">
        <ele>283</ele>
        <time>2015-08-30T08:52:46Z</time>
      </trkpt>
      <trkpt lat="47.72271" lon="7.18586">
        <ele>283</ele>
        <time>2015-08-30T08:52:49Z</time>
      </trkpt>
      <trkpt lat="47.72266" lon="7.18585">
        <ele>282</ele>
        <time>2015-08-30T08:52:55Z</time>
      </trkpt>
      <trkpt lat="47.72266" lon="7.18578">
        <ele>282</ele>
        <time>2015-08-30T08:53:03Z</time>
      </trkpt>
      <trkpt lat="47.72263" lon="7.18573">
        <ele>282</ele>
        <time>2015-08-30T08:53:10Z</time>
      </trkpt>
      <trkpt lat="47.72258" lon="7.18573">
        <ele>282</ele>
        <time>2015-08-30T08:53:14Z</time>
      </trkpt>
      <trkpt lat="47.72248" lon="7.18571">
        <ele>282</ele>
        <time>2015-08-30T08:53:20Z</time>
      </trkpt>
      <trkpt lat="47.72239" lon="7.18566">
        <ele>282</ele>
        <time>2015-08-30T08:53:29Z</time>
      </trkpt>
      <trkpt lat="47.7223" lon="7.18565">
        <ele>282</ele>
        <time>2015-08-30T08:53:35Z</time>
      </trkpt>
      <trkpt lat="47.72225" lon="7.18563">
        <ele>282.9</ele>
        <time>2015-08-30T08:53:40Z</time>
      </trkpt>
      <trkpt lat="47.7222" lon="7.1856">
        <ele>283.9</ele>
        <time>2015-08-30T08:53:43Z</time>
      </trkpt>
      <trkpt lat="47.72206" lon="7.18553">
        <ele>286</ele>
        <time>2015-08-30T08:53:51Z</time>
      </trkpt>
      <trkpt lat="47.72204" lon="7.18547">
        <ele>286.5</ele>
        <time>2015-08-30T08:53:55Z</time>
      </trkpt>
      <trkpt lat="47.72202" lon="7.1854">
        <ele>289</ele>
        <time>2015-08-30T08:54:00Z</time>
      </trkpt>
      <trkpt lat="47.722" lon="7.18534">
        <ele>289</ele>
        <time>2015-08-30T08:54:05Z</time>
      </trkpt>
      <trkpt lat="47.72195" lon="7.18533">
        <ele>289</ele>
        <time>2015-08-30T08:54:10Z</time>
      </trkpt>
      <trkpt lat="47.7219" lon="7.18534">
        <ele>289</ele>
        <time>2015-08-30T08:54:14Z</time>
      </trkpt>
      <trkpt lat="47.7218" lon="7.1853">
        <ele>289</ele>
        <time>2015-08-30T08:54:21Z</time>
      </trkpt>
      <trkpt lat="47.72172" lon="7.18532">
        <ele>289</ele>
        <time>2015-08-30T08:54:27Z</time>
      </trkpt>
      <trkpt lat="47.72167" lon="7.1853">
        <ele>289</ele>
        <time>2015-08-30T08:54:31Z</time>
      </trkpt>
      <trkpt lat="47.72162" lon="7.18525">
        <ele>288.1</ele>
        <time>2015-08-30T08:54:38Z</time>
      </trkpt>
      <trkpt lat="47.72158" lon="7.1852">
        <ele>288</ele>
        <time>2015-08-30T08:54:43Z</time>
      </trkpt>
      <trkpt lat="47.72152" lon="7.18517">
        <ele>288</ele>
        <time>2015-08-30T08:54:46Z</time>
      </trkpt>
      <trkpt lat="47.72146" lon="7.18516">
        <ele>288</ele>
        <time>2015-08-30T08:54:49Z</time>
      </trkpt>
      <trkpt lat="47.72134" lon="7.18507">
        <ele>284</ele>
        <time>2015-08-30T08:55:06Z</time>
      </trkpt>
      <trkpt lat="47.72129" lon="7.18502">
        <ele>284</ele>
        <time>2015-08-30T08:55:10Z</time>
      </trkpt>
      <trkpt lat="47.72126" lon="7.18496">
        <ele>284</ele>
        <time>2015-08-30T08:55:13Z</time>
      </trkpt>
      <trkpt lat="47.72121" lon="7.1849">
        <ele>284</ele>
        <time>2015-08-30T08:55:19Z</time>
      </trkpt>
      <trkpt lat="47.72117" lon="7.18488">
        <ele>284</ele>
        <time>2015-08-30T08:55:23Z</time>
      </trkpt>
      <trkpt lat="47.72111" lon="7.18486">
        <ele>284</ele>
        <time>2015-08-30T08:55:27Z</time>
      </trkpt>
      <trkpt lat="47.72101" lon="7.1848">
        <ele>284.9</ele>
        <time>2015-08-30T08:55:34Z</time>
      </trkpt>
      <trkpt lat="47.72092" lon="7.18478">
        <ele>286</ele>
        <time>2015-08-30T08:55:43Z</time>
      </trkpt>
      <trkpt lat="47.72086" lon="7.18478">
        <ele>287</ele>
        <time>2015-08-30T08:55:48Z</time>
      </trkpt>
      <trkpt lat="47.72078" lon="7.18477">
        <ele>287</ele>
        <time>2015-08-30T08:56:06Z</time>
      </trkpt>
      <trkpt lat="47.72073" lon="7.18475">
        <ele>287</ele>
        <time>2015-08-30T08:56:08Z</time>
      </trkpt>
      <trkpt lat="47.72064" lon="7.18472">
        <ele>287</ele>
        <time>2015-08-30T08:56:15Z</time>
      </trkpt>
      <trkpt lat="47.72054" lon="7.1847">
        <ele>287</ele>
        <time>2015-08-30T08:56:26Z</time>
      </trkpt>
      <trkpt lat="47.72044" lon="7.18474">
        <ele>286</ele>
        <time>2015-08-30T08:56:33Z</time>
      </trkpt>
      <trkpt lat="47.72039" lon="7.18473">
        <ele>285.3</ele>
        <time>2015-08-30T08:56:37Z</time>
      </trkpt>
      <trkpt lat="47.72028" lon="7.18474">
        <ele>285</ele>
        <time>2015-08-30T08:56:42Z</time>
      </trkpt>
      <trkpt lat="47.72023" lon="7.18473">
        <ele>284</ele>
        <time>2015-08-30T08:56:46Z</time>
      </trkpt>
      <trkpt lat="47.72018" lon="7.18475">
        <ele>284</ele>
        <time>2015-08-30T08:56:50Z</time>
      </trkpt>
      <trkpt lat="47.72005" lon="7.18485">
        <ele>284</ele>
        <time>2015-08-30T08:56:58Z</time>
      </trkpt>
      <trkpt lat="47.71999" lon="7.18486">
        <ele>284</ele>
        <time>2015-08-30T08:57:01Z</time>
      </trkpt>
      <trkpt lat="47.71989" lon="7.18479">
        <ele>282.1</ele>
        <time>2015-08-30T08:57:12Z</time>
      </trkpt>
      <trkpt lat="47.71979" lon="7.1848">
        <ele>281</ele>
        <time>2015-08-30T08:57:21Z</time>
      </trkpt>
      <trkpt lat="47.71969" lon="7.18476">
        <ele>280</ele>
        <time>2015-08-30T08:57:29Z</time>
      </trkpt>
      <trkpt lat="47.71965" lon="7.18474">
        <ele>280</ele>
        <time>2015-08-30T08:57:32Z</time>
      </trkpt>
      <trkpt lat="47.71954" lon="7.18472">
        <ele>280</ele>
        <time>2015-08-30T08:57:39Z</time>
      </trkpt>
      <trkpt lat="47.71949" lon="7.18471">
        <ele>280.9</ele>
        <time>2015-08-30T08:57:43Z</time>
      </trkpt>
      <trkpt lat="47.71939" lon="7.18469">
        <ele>281</ele>
        <time>2015-08-30T08:57:55Z</time>
      </trkpt>
      <trkpt lat="47.71929" lon="7.18466">
        <ele>281</ele>
        <time>2015-08-30T08:58:01Z</time>
      </trkpt>
      <trkpt lat="47.71924" lon="7.18466">
        <ele>281</ele>
        <time>2015-08-30T08:58:05Z</time>
      </trkpt>
      <trkpt lat="47.7191" lon="7.18461">
        <ele>281.9</ele>
        <time>2015-08-30T08:58:17Z</time>
      </trkpt>
      <trkpt lat="47.71897" lon="7.18453">
        <ele>284</ele>
        <time>2015-08-30T08:58:27Z</time>
      </trkpt>
      <trkpt lat="47.71891" lon="7.18452">
        <ele>285</ele>
        <time>2015-08-30T08:58:30Z</time>
      </trkpt>
      <trkpt lat="47.71881" lon="7.1845">
        <ele>285</ele>
        <time>2015-08-30T08:58:37Z</time>
      </trkpt>
      <trkpt lat="47.71876" lon="7.18452">
        <ele>285</ele>
        <time>2015-08-30T08:58:41Z</time>
      </trkpt>
      <trkpt lat="47.71873" lon="7.18446">
        <ele>285</ele>
        <time>2015-08-30T08:58:45Z</time>
      </trkpt>
      <trkpt lat="47.71869" lon="7.18443">
        <ele>285</ele>
        <time>2015-08-30T08:58:50Z</time>
      </trkpt>
      <trkpt lat="47.71864" lon="7.1844">
        <ele>285</ele>
        <time>2015-08-30T08:58:56Z</time>
      </trkpt>
      <trkpt lat="47.71854" lon="7.18435">
        <ele>285</ele>
        <time>2015-08-30T08:59:05Z</time>
      </trkpt>
      <trkpt lat="47.71849" lon="7.18434">
        <ele>284.1</ele>
        <time>2015-08-30T08:59:11Z</time>
      </trkpt>
      <trkpt lat="47.7184" lon="7.18428">
        <ele>282</ele>
        <time>2015-08-30T08:59:18Z</time>
      </trkpt>
      <trkpt lat="47.71835" lon="7.1843">
        <ele>281.1</ele>
        <time>2015-08-30T08:59:22Z</time>
      </trkpt>
      <trkpt lat="47.71821" lon="7.18429">
        <ele>279.1</ele>
        <time>2015-08-30T08:59:32Z</time>
      </trkpt>
      <trkpt lat="47.71807" lon="7.18427">
        <ele>273.2</ele>
        <time>2015-08-30T08:59:43Z</time>
      </trkpt>
      <trkpt lat="47.71797" lon="7.18428">
        <ele>273</ele>
        <time>2015-08-30T08:59:48Z</time>
      </trkpt>
      <trkpt lat="47.71788" lon="7.18426">
        <ele>273</ele>
        <time>2015-08-30T08:59:55Z</time>
      </trkpt>
      <trkpt lat="47.71777" lon="7.18424">
        <ele>273</ele>
        <time>2015-08-30T09:00:03Z</time>
      </trkpt>
      <trkpt lat="47.7177" lon="7.18427">
        <ele>273</ele>
        <time>2015-08-30T09:00:08Z</time>
      </trkpt>
      <trkpt lat="47.71765" lon="7.18428">
        <ele>273</ele>
        <time>2015-08-30T09:00:12Z</time>
      </trkpt>
      <trkpt lat="47.71757" lon="7.18425">
        <ele>273.8</ele>
        <time>2015-08-30T09:00:17Z</time>
      </trkpt>
      <trkpt lat="47.71749" lon="7.18421">
        <ele>277.2</ele>
        <time>2015-08-30T09:00:22Z</time>
      </trkpt>
      <trkpt lat="47.71745" lon="7.18421">
        <ele>279.4</ele>
        <time>2015-08-30T09:00:26Z</time>
      </trkpt>
      <trkpt lat="47.71739" lon="7.18418">
        <ele>279.7</ele>
        <time>2015-08-30T09:00:31Z</time>
      </trkpt>
      <trkpt lat="47.71734" lon="7.18414">
        <ele>280</ele>
        <time>2015-08-30T09:00:35Z</time>
      </trkpt>
      <trkpt lat="47.7173" lon="7.18409">
        <ele>281</ele>
        <time>2015-08-30T09:00:40Z</time>
      </trkpt>
      <trkpt lat="47.71724" lon="7.18408">
        <ele>282.4</ele>
        <time>2015-08-30T09:00:45Z</time>
      </trkpt>
      <trkpt lat="47.71718" lon="7.18406">
        <ele>283</ele>
        <time>2015-08-30T09:00:50Z</time>
      </trkpt>
      <trkpt lat="47.71714" lon="7.18402">
        <ele>283</ele>
        <time>2015-08-30T09:00:55Z</time>
      </trkpt>
      <trkpt lat="47.71709" lon="7.18398">
        <ele>283.7</ele>
        <time>2015-08-30T09:00:59Z</time>
      </trkpt>
      <trkpt lat="47.71696" lon="7.18393">
        <ele>284</ele>
        <time>2015-08-30T09:01:07Z</time>
      </trkpt>
      <trkpt lat="47.71686" lon="7.18387">
        <ele>284</ele>
        <time>2015-08-30T09:01:14Z</time>
      </trkpt>
      <trkpt lat="47.71683" lon="7.18383">
        <ele>284.9</ele>
        <time>2015-08-30T09:01:17Z</time>
      </trkpt>
      <trkpt lat="47.71678" lon="7.18381">
        <ele>284.9</ele>
        <time>2015-08-30T09:01:20Z</time>
      </trkpt>
      <trkpt lat="47.7167" lon="7.18378">
        <ele>285</ele>
        <time>2015-08-30T09:01:28Z</time>
      </trkpt>
      <trkpt lat="47.71663" lon="7.18376">
        <ele>285</ele>
        <time>2015-08-30T09:01:34Z</time>
      </trkpt>
      <trkpt lat="47.71659" lon="7.18372">
        <ele>285</ele>
        <time>2015-08-30T09:01:39Z</time>
      </trkpt>
      <trkpt lat="47.71655" lon="7.18368">
        <ele>285</ele>
        <time>2015-08-30T09:01:43Z</time>
      </trkpt>
      <trkpt lat="47.71646" lon="7.18362">
        <ele>285</ele>
        <time>2015-08-30T09:01:51Z</time>
      </trkpt>
      <trkpt lat="47.71642" lon="7.18359">
        <ele>285</ele>
        <time>2015-08-30T09:01:54Z</time>
      </trkpt>
      <trkpt lat="47.71637" lon="7.18357">
        <ele>285</ele>
        <time>2015-08-30T09:01:57Z</time>
      </trkpt>
      <trkpt lat="47.71624" lon="7.18349">
        <ele>283.3</ele>
        <time>2015-08-30T09:02:07Z</time>
      </trkpt>
      <trkpt lat="47.71616" lon="7.18341">
        <ele>280.3</ele>
        <time>2015-08-30T09:02:18Z</time>
      </trkpt>
      <trkpt lat="47.71611" lon="7.18338">
        <ele>280</ele>
        <time>2015-08-30T09:02:23Z</time>
      </trkpt>
      <trkpt lat="47.716" lon="7.18327">
        <ele>279</ele>
        <time>2015-08-30T09:02:37Z</time>
      </trkpt>
      <trkpt lat="47.71596" lon="7.18322">
        <ele>279</ele>
        <time>2015-08-30T09:02:43Z</time>
      </trkpt>
      <trkpt lat="47.71591" lon="7.18319">
        <ele>279</ele>
        <time>2015-08-30T09:02:46Z</time>
      </trkpt>
      <trkpt lat="47.71587" lon="7.18315">
        <ele>279</ele>
        <time>2015-08-30T09:02:51Z</time>
      </trkpt>
      <trkpt lat="47.71581" lon="7.18312">
        <ele>279</ele>
        <time>2015-08-30T09:02:55Z</time>
      </trkpt>
      <trkpt lat="47.71576" lon="7.1831">
        <ele>279</ele>
        <time>2015-08-30T09:02:57Z</time>
      </trkpt>
      <trkpt lat="47.7157" lon="7.18307">
        <ele>279</ele>
        <time>2015-08-30T09:03:00Z</time>
      </trkpt>
      <trkpt lat="47.71566" lon="7.18304">
        <ele>279</ele>
        <time>2015-08-30T09:03:02Z</time>
      </trkpt>
      <trkpt lat="47.71562" lon="7.183">
        <ele>281</ele>
        <time>2015-08-30T09:03:09Z</time>
      </trkpt>
      <trkpt lat="47.71557" lon="7.183">
        <ele>281</ele>
        <time>2015-08-30T09:03:13Z</time>
      </trkpt>
      <trkpt lat="47.71552" lon="7.18298">
        <ele>281</ele>
        <time>2015-08-30T09:03:17Z</time>
      </trkpt>
      <trkpt lat="47.7154" lon="7.1829">
        <ele>281.8</ele>
        <time>2015-08-30T09:03:28Z</time>
      </trkpt>
      <trkpt lat="47.71531" lon="7.18285">
        <ele>282.9</ele>
        <time>2015-08-30T09:03:33Z</time>
      </trkpt>
      <trkpt lat="47.71526" lon="7.18283">
        <ele>283</ele>
        <time>2015-08-30T09:03:37Z</time>
      </trkpt>
      <trkpt lat="47.71521" lon="7.18281">
        <ele>283</ele>
        <time>2015-08-30T09:03:45Z</time>
      </trkpt>
      <trkpt lat="47.71513" lon="7.18277">
        <ele>284.5</ele>
        <time>2015-08-30T09:03:57Z</time>
      </trkpt>
      <trkpt lat="47.715" lon="7.18264">
        <ele>286</ele>
        <time>2015-08-30T09:04:17Z</time>
      </trkpt>
      <trkpt lat="47.7149" lon="7.18264">
        <ele>286</ele>
        <time>2015-08-30T09:04:22Z</time>
      </trkpt>
      <trkpt lat="47.71485" lon="7.1826">
        <ele>286</ele>
        <time>2015-08-30T09:04:25Z</time>
      </trkpt>
      <trkpt lat="47.71485" lon="7.18253">
        <ele>286</ele>
        <time>2015-08-30T09:04:29Z</time>
      </trkpt>
      <trkpt lat="47.71488" lon="7.18246">
        <ele>286</ele>
        <time>2015-08-30T09:04:36Z</time>
      </trkpt>
      <trkpt lat="47.71492" lon="7.18233">
        <ele>286</ele>
        <time>2015-08-30T09:04:44Z</time>
      </trkpt>
      <trkpt lat="47.71495" lon="7.18228">
        <ele>285</ele>
        <time>2015-08-30T09:04:49Z</time>
      </trkpt>
      <trkpt lat="47.71497" lon="7.18221">
        <ele>285</ele>
        <time>2015-08-30T09:04:52Z</time>
      </trkpt>
      <trkpt lat="47.715" lon="7.1821">
        <ele>284</ele>
        <time>2015-08-30T09:04:57Z</time>
      </trkpt>
      <trkpt lat="47.71502" lon="7.18204">
        <ele>284</ele>
        <time>2015-08-30T09:05:00Z</time>
      </trkpt>
      <trkpt lat="47.71503" lon="7.18191">
        <ele>284</ele>
        <time>2015-08-30T09:05:08Z</time>
      </trkpt>
      <trkpt lat="47.71505" lon="7.18183">
        <ele>283.2</ele>
        <time>2015-08-30T09:05:11Z</time>
      </trkpt>
      <trkpt lat="47.71508" lon="7.18178">
        <ele>283</ele>
        <time>2015-08-30T09:05:15Z</time>
      </trkpt>
      <trkpt lat="47.71511" lon="7.18171">
        <ele>282.5</ele>
        <time>2015-08-30T09:05:19Z</time>
      </trkpt>
      <trkpt lat="47.71513" lon="7.18163">
        <ele>282</ele>
        <time>2015-08-30T09:05:23Z</time>
      </trkpt>
      <trkpt lat="47.71514" lon="7.1814">
        <ele>282</ele>
        <time>2015-08-30T09:05:33Z</time>
      </trkpt>
      <trkpt lat="47.71517" lon="7.18127">
        <ele>282</ele>
        <time>2015-08-30T09:05:41Z</time>
      </trkpt>
      <trkpt lat="47.71522" lon="7.18107">
        <ele>282</ele>
        <time>2015-08-30T09:05:50Z</time>
      </trkpt>
      <trkpt lat="47.71525" lon="7.18087">
        <ele>282</ele>
        <time>2015-08-30T09:06:01Z</time>
      </trkpt>
      <trkpt lat="47.71527" lon="7.18078">
        <ele>283</ele>
        <time>2015-08-30T09:06:07Z</time>
      </trkpt>
      <trkpt lat="47.71527" lon="7.18069">
        <ele>283</ele>
        <time>2015-08-30T09:06:10Z</time>
      </trkpt>
      <trkpt lat="47.71527" lon="7.18062">
        <ele>283</ele>
        <time>2015-08-30T09:06:14Z</time>
      </trkpt>
      <trkpt lat="47.7153" lon="7.18055">
        <ele>283</ele>
        <time>2015-08-30T09:06:18Z</time>
      </trkpt>
      <trkpt lat="47.71535" lon="7.18036">
        <ele>283</ele>
        <time>2015-08-30T09:06:27Z</time>
      </trkpt>
      <trkpt lat="47.7154" lon="7.18025">
        <ele>283</ele>
        <time>2015-08-30T09:06:34Z</time>
      </trkpt>
      <trkpt lat="47.71543" lon="7.18005">
        <ele>282.2</ele>
        <time>2015-08-30T09:06:46Z</time>
      </trkpt>
      <trkpt lat="47.71543" lon="7.17989">
        <ele>280</ele>
        <time>2015-08-30T09:06:55Z</time>
      </trkpt>
      <trkpt lat="47.71549" lon="7.17971">
        <ele>279</ele>
        <time>2015-08-30T09:07:03Z</time>
      </trkpt>
      <trkpt lat="47.71552" lon="7.17956">
        <ele>278</ele>
        <time>2015-08-30T09:07:09Z</time>
      </trkpt>
      <trkpt lat="47.71559" lon="7.17944">
        <ele>278</ele>
        <time>2015-08-30T09:07:18Z</time>
      </trkpt>
      <trkpt lat="47.71561" lon="7.17937">
        <ele>278</ele>
        <time>2015-08-30T09:07:23Z</time>
      </trkpt>
      <trkpt lat="47.71563" lon="7.17929">
        <ele>278</ele>
        <time>2015-08-30T09:07:26Z</time>
      </trkpt>
      <trkpt lat="47.71564" lon="7.17922">
        <ele>278</ele>
        <time>2015-08-30T09:07:30Z</time>
      </trkpt>
      <trkpt lat="47.71565" lon="7.17911">
        <ele>278.5</ele>
        <time>2015-08-30T09:07:36Z</time>
      </trkpt>
      <trkpt lat="47.71567" lon="7.17905">
        <ele>278.5</ele>
        <time>2015-08-30T09:07:40Z</time>
      </trkpt>
      <trkpt lat="47.71567" lon="7.17887">
        <ele>279</ele>
        <time>2015-08-30T09:07:48Z</time>
      </trkpt>
      <trkpt lat="47.71571" lon="7.17876">
        <ele>279</ele>
        <time>2015-08-30T09:07:56Z</time>
      </trkpt>
      <trkpt lat="47.71578" lon="7.17864">
        <ele>279</ele>
        <time>2015-08-30T09:08:05Z</time>
      </trkpt>
      <trkpt lat="47.71581" lon="7.17858">
        <ele>279.8</ele>
        <time>2015-08-30T09:08:09Z</time>
      </trkpt>
      <trkpt lat="47.71582" lon="7.17851">
        <ele>279.8</ele>
        <time>2015-08-30T09:08:12Z</time>
      </trkpt>
      <trkpt lat="47.71582" lon="7.17844">
        <ele>280</ele>
        <time>2015-08-30T09:08:16Z</time>
      </trkpt>
      <trkpt lat="47.71586" lon="7.1783">
        <ele>280</ele>
        <time>2015-08-30T09:08:24Z</time>
      </trkpt>
      <trkpt lat="47.71588" lon="7.17816">
        <ele>280.9</ele>
        <time>2015-08-30T09:08:30Z</time>
      </trkpt>
      <trkpt lat="47.71591" lon="7.17802">
        <ele>281.7</ele>
        <time>2015-08-30T09:08:37Z</time>
      </trkpt>
      <trkpt lat="47.71596" lon="7.17782">
        <ele>282</ele>
        <time>2015-08-30T09:08:47Z</time>
      </trkpt>
      <trkpt lat="47.71599" lon="7.17776">
        <ele>282</ele>
        <time>2015-08-30T09:08:52Z</time>
      </trkpt>
      <trkpt lat="47.71603" lon="7.17772">
        <ele>282</ele>
        <time>2015-08-30T09:08:57Z</time>
      </trkpt>
      <trkpt lat="47.71607" lon="7.17752">
        <ele>283</ele>
        <time>2015-08-30T09:09:07Z</time>
      </trkpt>
      <trkpt lat="47.7161" lon="7.17734">
        <ele>282</ele>
        <time>2015-08-30T09:09:16Z</time>
      </trkpt>
      <trkpt lat="47.71611" lon="7.17712">
        <ele>281.5</ele>
        <time>2015-08-30T09:09:23Z</time>
      </trkpt>
      <trkpt lat="47.71613" lon="7.17703">
        <ele>281</ele>
        <time>2015-08-30T09:09:27Z</time>
      </trkpt>
      <trkpt lat="47.71611" lon="7.17696">
        <ele>281</ele>
        <time>2015-08-30T09:09:33Z</time>
      </trkpt>
      <trkpt lat="47.71608" lon="7.17691">
        <ele>281</ele>
        <time>2015-08-30T09:09:37Z</time>
      </trkpt>
      <trkpt lat="47.71603" lon="7.17689">
        <ele>280.2</ele>
        <time>2015-08-30T09:09:43Z</time>
      </trkpt>
      <trkpt lat="47.71598" lon="7.17689">
        <ele>280</ele>
        <time>2015-08-30T09:09:48Z</time>
      </trkpt>
      <trkpt lat="47.71593" lon="7.17688">
        <ele>280</ele>
        <time>2015-08-30T09:09:53Z</time>
      </trkpt>
      <trkpt lat="47.71584" lon="7.17684">
        <ele>280</ele>
        <time>2015-08-30T09:10:00Z</time>
      </trkpt>
      <trkpt lat="47.71579" lon="7.17682">
        <ele>280</ele>
        <time>2015-08-30T09:10:04Z</time>
      </trkpt>
      <trkpt lat="47.71573" lon="7.1768">
        <ele>280</ele>
        <time>2015-08-30T09:10:08Z</time>
      </trkpt>
      <trkpt lat="47.71568" lon="7.1768">
        <ele>280</ele>
        <time>2015-08-30T09:10:12Z</time>
      </trkpt>
      <trkpt lat="47.7156" lon="7.17672">
        <ele>280</ele>
        <time>2015-08-30T09:10:19Z</time>
      </trkpt>
      <trkpt lat="47.71552" lon="7.1767">
        <ele>281.7</ele>
        <time>2015-08-30T09:10:26Z</time>
      </trkpt>
      <trkpt lat="47.71547" lon="7.17666">
        <ele>281.7</ele>
        <time>2015-08-30T09:10:30Z</time>
      </trkpt>
      <trkpt lat="47.71537" lon="7.1766">
        <ele>283.9</ele>
        <time>2015-08-30T09:10:39Z</time>
      </trkpt>
      <trkpt lat="47.71529" lon="7.17654">
        <ele>284</ele>
        <time>2015-08-30T09:10:47Z</time>
      </trkpt>
      <trkpt lat="47.71523" lon="7.17654">
        <ele>284</ele>
        <time>2015-08-30T09:10:52Z</time>
      </trkpt>
      <trkpt lat="47.71514" lon="7.17649">
        <ele>284</ele>
        <time>2015-08-30T09:10:58Z</time>
      </trkpt>
      <trkpt lat="47.71506" lon="7.17642">
        <ele>284</ele>
        <time>2015-08-30T09:11:07Z</time>
      </trkpt>
      <trkpt lat="47.71503" lon="7.17637">
        <ele>284</ele>
        <time>2015-08-30T09:11:12Z</time>
      </trkpt>
      <trkpt lat="47.71501" lon="7.17623">
        <ele>282.1</ele>
        <time>2015-08-30T09:11:21Z</time>
      </trkpt>
      <trkpt lat="47.71504" lon="7.17618">
        <ele>281</ele>
        <time>2015-08-30T09:11:28Z</time>
      </trkpt>
      <trkpt lat="47.71506" lon="7.1761">
        <ele>281</ele>
        <time>2015-08-30T09:11:31Z</time>
      </trkpt>
      <trkpt lat="47.71507" lon="7.17603">
        <ele>281</ele>
        <time>2015-08-30T09:11:34Z</time>
      </trkpt>
      <trkpt lat="47.71507" lon="7.1759">
        <ele>280</ele>
        <time>2015-08-30T09:11:42Z</time>
      </trkpt>
      <trkpt lat="47.71509" lon="7.17582">
        <ele>280</ele>
        <time>2015-08-30T09:11:46Z</time>
      </trkpt>
      <trkpt lat="47.71514" lon="7.1757">
        <ele>280</ele>
        <time>2015-08-30T09:11:53Z</time>
      </trkpt>
      <trkpt lat="47.71515" lon="7.17563">
        <ele>280</ele>
        <time>2015-08-30T09:11:56Z</time>
      </trkpt>
      <trkpt lat="47.71518" lon="7.17549">
        <ele>280</ele>
        <time>2015-08-30T09:12:02Z</time>
      </trkpt>
      <trkpt lat="47.71517" lon="7.17535">
        <ele>280</ele>
        <time>2015-08-30T09:12:10Z</time>
      </trkpt>
      <trkpt lat="47.71513" lon="7.17531">
        <ele>281</ele>
        <time>2015-08-30T09:12:13Z</time>
      </trkpt>
      <trkpt lat="47.71507" lon="7.17529">
        <ele>281</ele>
        <time>2015-08-30T09:12:16Z</time>
      </trkpt>
      <trkpt lat="47.71502" lon="7.17526">
        <ele>282.7</ele>
        <time>2015-08-30T09:12:19Z</time>
      </trkpt>
      <trkpt lat="47.71498" lon="7.17522">
        <ele>283</ele>
        <time>2015-08-30T09:12:22Z</time>
      </trkpt>
      <trkpt lat="47.71492" lon="7.17516">
        <ele>283</ele>
        <time>2015-08-30T09:12:28Z</time>
      </trkpt>
      <trkpt lat="47.71483" lon="7.17513">
        <ele>283</ele>
        <time>2015-08-30T09:12:35Z</time>
      </trkpt>
      <trkpt lat="47.71479" lon="7.17511">
        <ele>283.8</ele>
        <time>2015-08-30T09:12:39Z</time>
      </trkpt>
      <trkpt lat="47.71473" lon="7.17501">
        <ele>284</ele>
        <time>2015-08-30T09:12:47Z</time>
      </trkpt>
      <trkpt lat="47.71467" lon="7.1749">
        <ele>284</ele>
        <time>2015-08-30T09:12:53Z</time>
      </trkpt>
      <trkpt lat="47.71464" lon="7.17477">
        <ele>284</ele>
        <time>2015-08-30T09:13:04Z</time>
      </trkpt>
      <trkpt lat="47.71464" lon="7.1747">
        <ele>284.5</ele>
        <time>2015-08-30T09:13:08Z</time>
      </trkpt>
      <trkpt lat="47.71467" lon="7.17456">
        <ele>285</ele>
        <time>2015-08-30T09:13:19Z</time>
      </trkpt>
      <trkpt lat="47.71467" lon="7.17441">
        <ele>285</ele>
        <time>2015-08-30T09:13:25Z</time>
      </trkpt>
      <trkpt lat="47.71466" lon="7.17423">
        <ele>285.8</ele>
        <time>2015-08-30T09:13:31Z</time>
      </trkpt>
      <trkpt lat="47.71468" lon="7.17402">
        <ele>287</ele>
        <time>2015-08-30T09:13:49Z</time>
      </trkpt>
      <trkpt lat="47.71471" lon="7.17392">
        <ele>287</ele>
        <time>2015-08-30T09:13:54Z</time>
      </trkpt>
      <trkpt lat="47.71472" lon="7.17385">
        <ele>287</ele>
        <time>2015-08-30T09:13:58Z</time>
      </trkpt>
      <trkpt lat="47.71474" lon="7.17377">
        <ele>287.9</ele>
        <time>2015-08-30T09:14:02Z</time>
      </trkpt>
      <trkpt lat="47.71479" lon="7.17365">
        <ele>288.9</ele>
        <time>2015-08-30T09:14:08Z</time>
      </trkpt>
      <trkpt lat="47.71481" lon="7.17358">
        <ele>289</ele>
        <time>2015-08-30T09:14:14Z</time>
      </trkpt>
      <trkpt lat="47.71483" lon="7.17337">
        <ele>289</ele>
        <time>2015-08-30T09:14:25Z</time>
      </trkpt>
      <trkpt lat="47.71482" lon="7.17329">
        <ele>289</ele>
        <time>2015-08-30T09:14:29Z</time>
      </trkpt>
      <trkpt lat="47.71483" lon="7.17322">
        <ele>289</ele>
        <time>2015-08-30T09:14:32Z</time>
      </trkpt>
      <trkpt lat="47.71487" lon="7.17309">
        <ele>289</ele>
        <time>2015-08-30T09:14:39Z</time>
      </trkpt>
      <trkpt lat="47.71492" lon="7.17306">
        <ele>289</ele>
        <time>2015-08-30T09:14:44Z</time>
      </trkpt>
      <trkpt lat="47.71499" lon="7.17295">
        <ele>289</ele>
        <time>2015-08-30T09:14:51Z</time>
      </trkpt>
      <trkpt lat="47.71505" lon="7.17278">
        <ele>289</ele>
        <time>2015-08-30T09:15:00Z</time>
      </trkpt>
      <trkpt lat="47.71506" lon="7.17271">
        <ele>289</ele>
        <time>2015-08-30T09:15:04Z</time>
      </trkpt>
      <trkpt lat="47.71508" lon="7.1726">
        <ele>288.1</ele>
        <time>2015-08-30T09:15:09Z</time>
      </trkpt>
      <trkpt lat="47.71511" lon="7.17254">
        <ele>288</ele>
        <time>2015-08-30T09:15:14Z</time>
      </trkpt>
      <trkpt lat="47.71514" lon="7.17249">
        <ele>288</ele>
        <time>2015-08-30T09:15:18Z</time>
      </trkpt>
      <trkpt lat="47.71515" lon="7.17235">
        <ele>288</ele>
        <time>2015-08-30T09:15:24Z</time>
      </trkpt>
      <trkpt lat="47.71514" lon="7.17221">
        <ele>288</ele>
        <time>2015-08-30T09:15:29Z</time>
      </trkpt>
      <trkpt lat="47.71517" lon="7.17215">
        <ele>288</ele>
        <time>2015-08-30T09:15:33Z</time>
      </trkpt>
      <trkpt lat="47.71521" lon="7.1721">
        <ele>288.8</ele>
        <time>2015-08-30T09:15:37Z</time>
      </trkpt>
      <trkpt lat="47.71523" lon="7.17195">
        <ele>289</ele>
        <time>2015-08-30T09:15:48Z</time>
      </trkpt>
      <trkpt lat="47.71526" lon="7.17182">
        <ele>289</ele>
        <time>2015-08-30T09:15:54Z</time>
      </trkpt>
      <trkpt lat="47.71529" lon="7.17162">
        <ele>289</ele>
        <time>2015-08-30T09:16:03Z</time>
      </trkpt>
      <trkpt lat="47.71533" lon="7.17149">
        <ele>289.8</ele>
        <time>2015-08-30T09:16:11Z</time>
      </trkpt>
      <trkpt lat="47.71538" lon="7.17134">
        <ele>290</ele>
        <time>2015-08-30T09:16:20Z</time>
      </trkpt>
      <trkpt lat="47.71543" lon="7.17114">
        <ele>290</ele>
        <time>2015-08-30T09:16:30Z</time>
      </trkpt>
      <trkpt lat="47.71545" lon="7.17108">
        <ele>290</ele>
        <time>2015-08-30T09:16:34Z</time>
      </trkpt>
      <trkpt lat="47.71557" lon="7.17097">
        <ele>290</ele>
        <time>2015-08-30T09:16:45Z</time>
      </trkpt>
      <trkpt lat="47.7157" lon="7.17086">
        <ele>290</ele>
        <time>2015-08-30T09:16:57Z</time>
      </trkpt>
      <trkpt lat="47.71578" lon="7.17078">
        <ele>290</ele>
        <time>2015-08-30T09:17:04Z</time>
      </trkpt>
      <trkpt lat="47.71583" lon="7.17066">
        <ele>290</ele>
        <time>2015-08-30T09:17:12Z</time>
      </trkpt>
      <trkpt lat="47.71586" lon="7.17059">
        <ele>289.5</ele>
        <time>2015-08-30T09:17:17Z</time>
      </trkpt>
      <trkpt lat="47.7159" lon="7.17055">
        <ele>289</ele>
        <time>2015-08-30T09:17:20Z</time>
      </trkpt>
      <trkpt lat="47.71601" lon="7.17043">
        <ele>289</ele>
        <time>2015-08-30T09:17:30Z</time>
      </trkpt>
      <trkpt lat="47.71606" lon="7.17036">
        <ele>289</ele>
        <time>2015-08-30T09:17:35Z</time>
      </trkpt>
      <trkpt lat="47.71611" lon="7.1703">
        <ele>289</ele>
        <time>2015-08-30T09:17:39Z</time>
      </trkpt>
      <trkpt lat="47.71618" lon="7.17017">
        <ele>289</ele>
        <time>2015-08-30T09:17:46Z</time>
      </trkpt>
      <trkpt lat="47.71625" lon="7.17009">
        <ele>289</ele>
        <time>2015-08-30T09:17:52Z</time>
      </trkpt>
      <trkpt lat="47.71634" lon="7.17">
        <ele>289</ele>
        <time>2015-08-30T09:17:58Z</time>
      </trkpt>
      <trkpt lat="47.71638" lon="7.16995">
        <ele>290</ele>
        <time>2015-08-30T09:18:01Z</time>
      </trkpt>
      <trkpt lat="47.71642" lon="7.16987">
        <ele>290.7</ele>
        <time>2015-08-30T09:18:09Z</time>
      </trkpt>
      <trkpt lat="47.71646" lon="7.16983">
        <ele>291.7</ele>
        <time>2015-08-30T09:18:14Z</time>
      </trkpt>
      <trkpt lat="47.71654" lon="7.16975">
        <ele>292</ele>
        <time>2015-08-30T09:18:22Z</time>
      </trkpt>
      <trkpt lat="47.71662" lon="7.16965">
        <ele>292.8</ele>
        <time>2015-08-30T09:18:31Z</time>
      </trkpt>
      <trkpt lat="47.71668" lon="7.16961">
        <ele>292.9</ele>
        <time>2015-08-30T09:18:36Z</time>
      </trkpt>
      <trkpt lat="47.71672" lon="7.16955">
        <ele>293</ele>
        <time>2015-08-30T09:18:41Z</time>
      </trkpt>
      <trkpt lat="47.71678" lon="7.16945">
        <ele>293</ele>
        <time>2015-08-30T09:18:49Z</time>
      </trkpt>
      <trkpt lat="47.71682" lon="7.16941">
        <ele>293</ele>
        <time>2015-08-30T09:18:53Z</time>
      </trkpt>
      <trkpt lat="47.71687" lon="7.16937">
        <ele>293</ele>
        <time>2015-08-30T09:18:57Z</time>
      </trkpt>
      <trkpt lat="47.71696" lon="7.16927">
        <ele>293</ele>
        <time>2015-08-30T09:19:04Z</time>
      </trkpt>
      <trkpt lat="47.71707" lon="7.16919">
        <ele>293</ele>
        <time>2015-08-30T09:19:12Z</time>
      </trkpt>
      <trkpt lat="47.71709" lon="7.16912">
        <ele>294</ele>
        <time>2015-08-30T09:19:17Z</time>
      </trkpt>
      <trkpt lat="47.71713" lon="7.16908">
        <ele>294</ele>
        <time>2015-08-30T09:19:22Z</time>
      </trkpt>
      <trkpt lat="47.71717" lon="7.16903">
        <ele>294.7</ele>
        <time>2015-08-30T09:19:26Z</time>
      </trkpt>
      <trkpt lat="47.71725" lon="7.1689">
        <ele>296.9</ele>
        <time>2015-08-30T09:19:33Z</time>
      </trkpt>
      <trkpt lat="47.71721" lon="7.16886">
        <ele>297</ele>
        <time>2015-08-30T09:19:37Z</time>
      </trkpt>
      <trkpt lat="47.71724" lon="7.16879">
        <ele>297</ele>
        <time>2015-08-30T09:19:46Z</time>
      </trkpt>
      <trkpt lat="47.71731" lon="7.16865">
        <ele>297</ele>
        <time>2015-08-30T09:19:53Z</time>
      </trkpt>
      <trkpt lat="47.71739" lon="7.16856">
        <ele>297</ele>
        <time>2015-08-30T09:20:01Z</time>
      </trkpt>
      <trkpt lat="47.71743" lon="7.16851">
        <ele>296</ele>
        <time>2015-08-30T09:20:05Z</time>
      </trkpt>
      <trkpt lat="47.71746" lon="7.16844">
        <ele>296</ele>
        <time>2015-08-30T09:20:09Z</time>
      </trkpt>
      <trkpt lat="47.71751" lon="7.16838">
        <ele>295.1</ele>
        <time>2015-08-30T09:20:14Z</time>
      </trkpt>
      <trkpt lat="47.7175" lon="7.16816">
        <ele>295</ele>
        <time>2015-08-30T09:20:22Z</time>
      </trkpt>
      <trkpt lat="47.71752" lon="7.16802">
        <ele>294</ele>
        <time>2015-08-30T09:20:27Z</time>
      </trkpt>
      <trkpt lat="47.71763" lon="7.16792">
        <ele>294</ele>
        <time>2015-08-30T09:20:38Z</time>
      </trkpt>
      <trkpt lat="47.71777" lon="7.16786">
        <ele>293.1</ele>
        <time>2015-08-30T09:20:48Z</time>
      </trkpt>
      <trkpt lat="47.71781" lon="7.16783">
        <ele>293</ele>
        <time>2015-08-30T09:20:51Z</time>
      </trkpt>
      <trkpt lat="47.71785" lon="7.1678">
        <ele>293</ele>
        <time>2015-08-30T09:20:54Z</time>
      </trkpt>
      <trkpt lat="47.71787" lon="7.16765">
        <ele>292.1</ele>
        <time>2015-08-30T09:21:01Z</time>
      </trkpt>
      <trkpt lat="47.71795" lon="7.16759">
        <ele>291.1</ele>
        <time>2015-08-30T09:21:09Z</time>
      </trkpt>
      <trkpt lat="47.71798" lon="7.16754">
        <ele>291.1</ele>
        <time>2015-08-30T09:21:12Z</time>
      </trkpt>
      <trkpt lat="47.71801" lon="7.16746">
        <ele>291</ele>
        <time>2015-08-30T09:21:15Z</time>
      </trkpt>
      <trkpt lat="47.71807" lon="7.1674">
        <ele>291</ele>
        <time>2015-08-30T09:21:19Z</time>
      </trkpt>
      <trkpt lat="47.71809" lon="7.16734">
        <ele>291</ele>
        <time>2015-08-30T09:21:23Z</time>
      </trkpt>
      <trkpt lat="47.71807" lon="7.16725">
        <ele>291</ele>
        <time>2015-08-30T09:21:28Z</time>
      </trkpt>
      <trkpt lat="47.71808" lon="7.16717">
        <ele>291</ele>
        <time>2015-08-30T09:21:31Z</time>
      </trkpt>
      <trkpt lat="47.71815" lon="7.16707">
        <ele>291</ele>
        <time>2015-08-30T09:21:37Z</time>
      </trkpt>
      <trkpt lat="47.71821" lon="7.16696">
        <ele>293.6</ele>
        <time>2015-08-30T09:21:46Z</time>
      </trkpt>
      <trkpt lat="47.71826" lon="7.16684">
        <ele>294</ele>
        <time>2015-08-30T09:21:54Z</time>
      </trkpt>
      <trkpt lat="47.71829" lon="7.16669">
        <ele>294</ele>
        <time>2015-08-30T09:22:00Z</time>
      </trkpt>
      <trkpt lat="47.71837" lon="7.16663">
        <ele>294</ele>
        <time>2015-08-30T09:22:06Z</time>
      </trkpt>
      <trkpt lat="47.71844" lon="7.16651">
        <ele>294</ele>
        <time>2015-08-30T09:22:14Z</time>
      </trkpt>
      <trkpt lat="47.71845" lon="7.16638">
        <ele>292.2</ele>
        <time>2015-08-30T09:22:19Z</time>
      </trkpt>
      <trkpt lat="47.71851" lon="7.16619">
        <ele>291</ele>
        <time>2015-08-30T09:22:28Z</time>
      </trkpt>
      <trkpt lat="47.71854" lon="7.16604">
        <ele>291</ele>
        <time>2015-08-30T09:22:35Z</time>
      </trkpt>
      <trkpt lat="47.71857" lon="7.16598">
        <ele>291</ele>
        <time>2015-08-30T09:22:39Z</time>
      </trkpt>
      <trkpt lat="47.71861" lon="7.16594">
        <ele>291</ele>
        <time>2015-08-30T09:22:42Z</time>
      </trkpt>
      <trkpt lat="47.71871" lon="7.16579">
        <ele>291</ele>
        <time>2015-08-30T09:22:56Z</time>
      </trkpt>
      <trkpt lat="47.71875" lon="7.1656">
        <ele>291</ele>
        <time>2015-08-30T09:23:05Z</time>
      </trkpt>
      <trkpt lat="47.71878" lon="7.16546">
        <ele>291</ele>
        <time>2015-08-30T09:23:13Z</time>
      </trkpt>
      <trkpt lat="47.71876" lon="7.16538">
        <ele>291</ele>
        <time>2015-08-30T09:23:16Z</time>
      </trkpt>
      <trkpt lat="47.71878" lon="7.16532">
        <ele>291</ele>
        <time>2015-08-30T09:23:20Z</time>
      </trkpt>
      <trkpt lat="47.71879" lon="7.16515">
        <ele>291</ele>
        <time>2015-08-30T09:23:29Z</time>
      </trkpt>
      <trkpt lat="47.71881" lon="7.16501">
        <ele>290.1</ele>
        <time>2015-08-30T09:23:35Z</time>
      </trkpt>
      <trkpt lat="47.7188" lon="7.16494">
        <ele>290</ele>
        <time>2015-08-30T09:23:38Z</time>
      </trkpt>
      <trkpt lat="47.71883" lon="7.16481">
        <ele>289.2</ele>
        <time>2015-08-30T09:23:48Z</time>
      </trkpt>
      <trkpt lat="47.71881" lon="7.16461">
        <ele>289</ele>
        <time>2015-08-30T09:23:57Z</time>
      </trkpt>
      <trkpt lat="47.71882" lon="7.16455">
        <ele>289</ele>
        <time>2015-08-30T09:24:03Z</time>
      </trkpt>
      <trkpt lat="47.71884" lon="7.16449">
        <ele>289</ele>
        <time>2015-08-30T09:24:07Z</time>
      </trkpt>
      <trkpt lat="47.71885" lon="7.1644">
        <ele>289</ele>
        <time>2015-08-30T09:24:11Z</time>
      </trkpt>
      <trkpt lat="47.71886" lon="7.16433">
        <ele>289</ele>
        <time>2015-08-30T09:24:15Z</time>
      </trkpt>
      <trkpt lat="47.71887" lon="7.16426">
        <ele>288.1</ele>
        <time>2015-08-30T09:24:19Z</time>
      </trkpt>
      <trkpt lat="47.71889" lon="7.16419">
        <ele>288.1</ele>
        <time>2015-08-30T09:24:22Z</time>
      </trkpt>
      <trkpt lat="47.71896" lon="7.16408">
        <ele>289</ele>
        <time>2015-08-30T09:24:27Z</time>
      </trkpt>
      <trkpt lat="47.71898" lon="7.164">
        <ele>289</ele>
        <time>2015-08-30T09:24:31Z</time>
      </trkpt>
      <trkpt lat="47.719" lon="7.1638">
        <ele>289</ele>
        <time>2015-08-30T09:24:41Z</time>
      </trkpt>
      <trkpt lat="47.71901" lon="7.16371">
        <ele>290</ele>
        <time>2015-08-30T09:24:45Z</time>
      </trkpt>
      <trkpt lat="47.71903" lon="7.16364">
        <ele>290</ele>
        <time>2015-08-30T09:24:49Z</time>
      </trkpt>
      <trkpt lat="47.71908" lon="7.16358">
        <ele>290</ele>
        <time>2015-08-30T09:24:53Z</time>
      </trkpt>
      <trkpt lat="47.71909" lon="7.1635">
        <ele>290</ele>
        <time>2015-08-30T09:24:58Z</time>
      </trkpt>
      <trkpt lat="47.71908" lon="7.1634">
        <ele>290</ele>
        <time>2015-08-30T09:25:03Z</time>
      </trkpt>
      <trkpt lat="47.71906" lon="7.16333">
        <ele>290</ele>
        <time>2015-08-30T09:25:11Z</time>
      </trkpt>
      <trkpt lat="47.71903" lon="7.16327">
        <ele>290</ele>
        <time>2015-08-30T09:25:15Z</time>
      </trkpt>
      <trkpt lat="47.71902" lon="7.16318">
        <ele>290</ele>
        <time>2015-08-30T09:25:19Z</time>
      </trkpt>
      <trkpt lat="47.71903" lon="7.16303">
        <ele>290</ele>
        <time>2015-08-30T09:25:24Z</time>
      </trkpt>
      <trkpt lat="47.71903" lon="7.16296">
        <ele>290</ele>
        <time>2015-08-30T09:25:28Z</time>
      </trkpt>
      <trkpt lat="47.71899" lon="7.16292">
        <ele>290</ele>
        <time>2015-08-30T09:25:34Z</time>
      </trkpt>
      <trkpt lat="47.71896" lon="7.16271">
        <ele>291</ele>
        <time>2015-08-30T09:25:46Z</time>
      </trkpt>
      <trkpt lat="47.71897" lon="7.16264">
        <ele>291</ele>
        <time>2015-08-30T09:25:51Z</time>
      </trkpt>
      <trkpt lat="47.71891" lon="7.1626">
        <ele>291</ele>
        <time>2015-08-30T09:25:55Z</time>
      </trkpt>
      <trkpt lat="47.71881" lon="7.16256">
        <ele>291</ele>
        <time>2015-08-30T09:26:00Z</time>
      </trkpt>
      <trkpt lat="47.71876" lon="7.16251">
        <ele>291</ele>
        <time>2015-08-30T09:26:04Z</time>
      </trkpt>
      <trkpt lat="47.71872" lon="7.16252">
        <ele>290.9</ele>
        <time>2015-08-30T09:26:09Z</time>
      </trkpt>
      <trkpt lat="47.71867" lon="7.1625">
        <ele>290.9</ele>
        <time>2015-08-30T09:26:13Z</time>
      </trkpt>
      <trkpt lat="47.71865" lon="7.16248">
        <ele>295</ele>
        <time>2015-08-30T09:26:15Z</time>
      </trkpt>
      <trkpt lat="47.71865" lon="7.16248">
        <ele>300.1</ele>
        <time>2015-08-30T09:26:15Z</time>
      </trkpt>
      <trkpt lat="47.71865" lon="7.16248">
        <ele>300.1</ele>
        <time>2015-08-30T09:26:16Z</time>
      </trkpt>
    </trkseg>
  </trk>
</gpx>